<?xml version="1.0" encoding="UTF-8" standalone="no" ?>
<gpx xmlns="http://www.topografix.com/GPX/1/1" xmlns:xsi="http://www.w3.org/2001/XMLSchema-instance" xsi:schemaLocation="http://www.topografix.com/GPX/1/1 http://www.topografix.com/GPX/1/1/gpx.xsd" version="1.1" creator="VisuGPX - https://www.visugpx.com">
  <metadata>
    <name>Entre Paulhiac et Gavaudun</name>
    <desc><![CDATA[Un circuit assez court mais assez physique sur la première moitié.]]></desc>
  </metadata>
  <trk>
    <name><![CDATA[26-MAI-13 11:49:20]]></name>
    <trkseg>
      <trkpt lat="44.58571" lon="0.82479">
        <ele>148.18</ele>
        <time>2013-05-26T06:56:32Z</time>
      </trkpt>
      <trkpt lat="44.58572" lon="0.82476">
        <ele>146.74</ele>
        <time>2013-05-26T06:57:06Z</time>
      </trkpt>
      <trkpt lat="44.58572" lon="0.82477">
        <ele>146.26</ele>
        <time>2013-05-26T06:57:24Z</time>
      </trkpt>
      <trkpt lat="44.58572" lon="0.82477">
        <ele>146.26</ele>
        <time>2013-05-26T06:57:40Z</time>
      </trkpt>
      <trkpt lat="44.5857" lon="0.8248">
        <ele>146.26</ele>
        <time>2013-05-26T06:58:15Z</time>
      </trkpt>
      <trkpt lat="44.58572" lon="0.82479">
        <ele>146.74</ele>
        <time>2013-05-26T06:58:35Z</time>
      </trkpt>
      <trkpt lat="44.58571" lon="0.82479">
        <ele>147.7</ele>
        <time>2013-05-26T06:59:07Z</time>
      </trkpt>
      <trkpt lat="44.5857" lon="0.82479">
        <ele>145.78</ele>
        <time>2013-05-26T06:59:38Z</time>
      </trkpt>
      <trkpt lat="44.58574" lon="0.82477">
        <ele>147.7</ele>
        <time>2013-05-26T06:59:55Z</time>
      </trkpt>
      <trkpt lat="44.58575" lon="0.82477">
        <ele>146.26</ele>
        <time>2013-05-26T07:00:20Z</time>
      </trkpt>
      <trkpt lat="44.58574" lon="0.82473">
        <ele>150.1</ele>
        <time>2013-05-26T07:00:57Z</time>
      </trkpt>
      <trkpt lat="44.58575" lon="0.82473">
        <ele>148.66</ele>
        <time>2013-05-26T07:01:33Z</time>
      </trkpt>
      <trkpt lat="44.58574" lon="0.82477">
        <ele>145.78</ele>
        <time>2013-05-26T07:02:08Z</time>
      </trkpt>
      <trkpt lat="44.58575" lon="0.82479">
        <ele>143.85</ele>
        <time>2013-05-26T07:02:34Z</time>
      </trkpt>
      <trkpt lat="44.58574" lon="0.82477">
        <ele>144.34</ele>
        <time>2013-05-26T07:02:55Z</time>
      </trkpt>
      <trkpt lat="44.58573" lon="0.82476">
        <ele>147.22</ele>
        <time>2013-05-26T07:03:20Z</time>
      </trkpt>
      <trkpt lat="44.58574" lon="0.82477">
        <ele>147.22</ele>
        <time>2013-05-26T07:03:54Z</time>
      </trkpt>
      <trkpt lat="44.58575" lon="0.82476">
        <ele>148.66</ele>
        <time>2013-05-26T07:04:22Z</time>
      </trkpt>
      <trkpt lat="44.58576" lon="0.82476">
        <ele>148.66</ele>
        <time>2013-05-26T07:04:48Z</time>
      </trkpt>
      <trkpt lat="44.58575" lon="0.82475">
        <ele>148.18</ele>
        <time>2013-05-26T07:05:17Z</time>
      </trkpt>
      <trkpt lat="44.58574" lon="0.82476">
        <ele>148.66</ele>
        <time>2013-05-26T07:05:48Z</time>
      </trkpt>
      <trkpt lat="44.58574" lon="0.82477">
        <ele>149.62</ele>
        <time>2013-05-26T07:06:21Z</time>
      </trkpt>
      <trkpt lat="44.58574" lon="0.82475">
        <ele>149.14</ele>
        <time>2013-05-26T07:06:50Z</time>
      </trkpt>
      <trkpt lat="44.58574" lon="0.82476">
        <ele>147.7</ele>
        <time>2013-05-26T07:07:30Z</time>
      </trkpt>
      <trkpt lat="44.58575" lon="0.82476">
        <ele>148.18</ele>
        <time>2013-05-26T07:07:56Z</time>
      </trkpt>
      <trkpt lat="44.58575" lon="0.82477">
        <ele>145.3</ele>
        <time>2013-05-26T07:08:26Z</time>
      </trkpt>
      <trkpt lat="44.58573" lon="0.82477">
        <ele>145.78</ele>
        <time>2013-05-26T07:08:41Z</time>
      </trkpt>
      <trkpt lat="44.58572" lon="0.82477">
        <ele>145.78</ele>
        <time>2013-05-26T07:08:50Z</time>
      </trkpt>
      <trkpt lat="44.58571" lon="0.82481">
        <ele>145.78</ele>
        <time>2013-05-26T07:08:53Z</time>
      </trkpt>
      <trkpt lat="44.58556" lon="0.82505">
        <ele>146.74</ele>
        <time>2013-05-26T07:09:07Z</time>
      </trkpt>
      <trkpt lat="44.58526" lon="0.82533">
        <ele>148.66</ele>
        <time>2013-05-26T07:09:21Z</time>
      </trkpt>
      <trkpt lat="44.58491" lon="0.82567">
        <ele>149.14</ele>
        <time>2013-05-26T07:09:36Z</time>
      </trkpt>
      <trkpt lat="44.58456" lon="0.826">
        <ele>148.18</ele>
        <time>2013-05-26T07:09:50Z</time>
      </trkpt>
      <trkpt lat="44.58398" lon="0.82653">
        <ele>147.7</ele>
        <time>2013-05-26T07:10:12Z</time>
      </trkpt>
      <trkpt lat="44.58338" lon="0.82691">
        <ele>147.22</ele>
        <time>2013-05-26T07:10:30Z</time>
      </trkpt>
      <trkpt lat="44.58283" lon="0.8271">
        <ele>147.22</ele>
        <time>2013-05-26T07:10:47Z</time>
      </trkpt>
      <trkpt lat="44.58223" lon="0.82741">
        <ele>147.7</ele>
        <time>2013-05-26T07:11:05Z</time>
      </trkpt>
      <trkpt lat="44.58162" lon="0.82779">
        <ele>148.66</ele>
        <time>2013-05-26T07:11:25Z</time>
      </trkpt>
      <trkpt lat="44.581" lon="0.8283">
        <ele>150.1</ele>
        <time>2013-05-26T07:11:47Z</time>
      </trkpt>
      <trkpt lat="44.58056" lon="0.82869">
        <ele>150.58</ele>
        <time>2013-05-26T07:12:05Z</time>
      </trkpt>
      <trkpt lat="44.58025" lon="0.82897">
        <ele>151.06</ele>
        <time>2013-05-26T07:12:20Z</time>
      </trkpt>
      <trkpt lat="44.58025" lon="0.82901">
        <ele>151.06</ele>
        <time>2013-05-26T07:12:21Z</time>
      </trkpt>
      <trkpt lat="44.58026" lon="0.82904">
        <ele>151.06</ele>
        <time>2013-05-26T07:12:22Z</time>
      </trkpt>
      <trkpt lat="44.58026" lon="0.82907">
        <ele>151.06</ele>
        <time>2013-05-26T07:12:23Z</time>
      </trkpt>
      <trkpt lat="44.58027" lon="0.8291">
        <ele>151.06</ele>
        <time>2013-05-26T07:12:24Z</time>
      </trkpt>
      <trkpt lat="44.58028" lon="0.82913">
        <ele>151.06</ele>
        <time>2013-05-26T07:12:25Z</time>
      </trkpt>
      <trkpt lat="44.58029" lon="0.82916">
        <ele>151.06</ele>
        <time>2013-05-26T07:12:26Z</time>
      </trkpt>
      <trkpt lat="44.58048" lon="0.82979">
        <ele>152.03</ele>
        <time>2013-05-26T07:12:43Z</time>
      </trkpt>
      <trkpt lat="44.58074" lon="0.83065">
        <ele>152.51</ele>
        <time>2013-05-26T07:13:01Z</time>
      </trkpt>
      <trkpt lat="44.58096" lon="0.8314">
        <ele>152.51</ele>
        <time>2013-05-26T07:13:16Z</time>
      </trkpt>
      <trkpt lat="44.58115" lon="0.83204">
        <ele>153.47</ele>
        <time>2013-05-26T07:13:31Z</time>
      </trkpt>
      <trkpt lat="44.58115" lon="0.83207">
        <ele>153.47</ele>
        <time>2013-05-26T07:13:32Z</time>
      </trkpt>
      <trkpt lat="44.58115" lon="0.83211">
        <ele>153.47</ele>
        <time>2013-05-26T07:13:33Z</time>
      </trkpt>
      <trkpt lat="44.58113" lon="0.83214">
        <ele>153.95</ele>
        <time>2013-05-26T07:13:34Z</time>
      </trkpt>
      <trkpt lat="44.58112" lon="0.83217">
        <ele>153.95</ele>
        <time>2013-05-26T07:13:35Z</time>
      </trkpt>
      <trkpt lat="44.58111" lon="0.8322">
        <ele>154.43</ele>
        <time>2013-05-26T07:13:36Z</time>
      </trkpt>
      <trkpt lat="44.58111" lon="0.83223">
        <ele>154.91</ele>
        <time>2013-05-26T07:13:37Z</time>
      </trkpt>
      <trkpt lat="44.5811" lon="0.83225">
        <ele>154.91</ele>
        <time>2013-05-26T07:13:38Z</time>
      </trkpt>
      <trkpt lat="44.5811" lon="0.83229">
        <ele>154.91</ele>
        <time>2013-05-26T07:13:39Z</time>
      </trkpt>
      <trkpt lat="44.58103" lon="0.8327">
        <ele>158.27</ele>
        <time>2013-05-26T07:13:52Z</time>
      </trkpt>
      <trkpt lat="44.58099" lon="0.83297">
        <ele>164.04</ele>
        <time>2013-05-26T07:14:03Z</time>
      </trkpt>
      <trkpt lat="44.58098" lon="0.83302">
        <ele>165</ele>
        <time>2013-05-26T07:14:06Z</time>
      </trkpt>
      <trkpt lat="44.58093" lon="0.83345">
        <ele>168.85</ele>
        <time>2013-05-26T07:14:18Z</time>
      </trkpt>
      <trkpt lat="44.58085" lon="0.83383">
        <ele>173.66</ele>
        <time>2013-05-26T07:14:30Z</time>
      </trkpt>
      <trkpt lat="44.58079" lon="0.83407">
        <ele>175.58</ele>
        <time>2013-05-26T07:14:38Z</time>
      </trkpt>
      <trkpt lat="44.58077" lon="0.83427">
        <ele>174.62</ele>
        <time>2013-05-26T07:14:47Z</time>
      </trkpt>
      <trkpt lat="44.58077" lon="0.8343">
        <ele>174.14</ele>
        <time>2013-05-26T07:14:48Z</time>
      </trkpt>
      <trkpt lat="44.5807" lon="0.83478">
        <ele>172.21</ele>
        <time>2013-05-26T07:15:02Z</time>
      </trkpt>
      <trkpt lat="44.58062" lon="0.83521">
        <ele>170.29</ele>
        <time>2013-05-26T07:15:16Z</time>
      </trkpt>
      <trkpt lat="44.58048" lon="0.83559">
        <ele>170.77</ele>
        <time>2013-05-26T07:15:30Z</time>
      </trkpt>
      <trkpt lat="44.58041" lon="0.83576">
        <ele>171.25</ele>
        <time>2013-05-26T07:15:37Z</time>
      </trkpt>
      <trkpt lat="44.58035" lon="0.83615">
        <ele>174.14</ele>
        <time>2013-05-26T07:15:52Z</time>
      </trkpt>
      <trkpt lat="44.58027" lon="0.8366">
        <ele>175.58</ele>
        <time>2013-05-26T07:16:05Z</time>
      </trkpt>
      <trkpt lat="44.5802" lon="0.83704">
        <ele>176.54</ele>
        <time>2013-05-26T07:16:17Z</time>
      </trkpt>
      <trkpt lat="44.58017" lon="0.83716">
        <ele>176.06</ele>
        <time>2013-05-26T07:16:21Z</time>
      </trkpt>
      <trkpt lat="44.57998" lon="0.83716">
        <ele>172.69</ele>
        <time>2013-05-26T07:16:31Z</time>
      </trkpt>
      <trkpt lat="44.57968" lon="0.83707">
        <ele>170.29</ele>
        <time>2013-05-26T07:16:45Z</time>
      </trkpt>
      <trkpt lat="44.5794" lon="0.83704">
        <ele>169.81</ele>
        <time>2013-05-26T07:16:57Z</time>
      </trkpt>
      <trkpt lat="44.579" lon="0.83702">
        <ele>170.29</ele>
        <time>2013-05-26T07:17:10Z</time>
      </trkpt>
      <trkpt lat="44.57859" lon="0.837">
        <ele>171.25</ele>
        <time>2013-05-26T07:17:21Z</time>
      </trkpt>
      <trkpt lat="44.57838" lon="0.8372">
        <ele>170.77</ele>
        <time>2013-05-26T07:17:28Z</time>
      </trkpt>
      <trkpt lat="44.57821" lon="0.83739">
        <ele>171.25</ele>
        <time>2013-05-26T07:17:34Z</time>
      </trkpt>
      <trkpt lat="44.57806" lon="0.83728">
        <ele>169.81</ele>
        <time>2013-05-26T07:17:45Z</time>
      </trkpt>
      <trkpt lat="44.57798" lon="0.83723">
        <ele>169.33</ele>
        <time>2013-05-26T07:17:48Z</time>
      </trkpt>
      <trkpt lat="44.57764" lon="0.83729">
        <ele>169.33</ele>
        <time>2013-05-26T07:17:57Z</time>
      </trkpt>
      <trkpt lat="44.57726" lon="0.83728">
        <ele>170.29</ele>
        <time>2013-05-26T07:18:09Z</time>
      </trkpt>
      <trkpt lat="44.57685" lon="0.83719">
        <ele>167.89</ele>
        <time>2013-05-26T07:18:20Z</time>
      </trkpt>
      <trkpt lat="44.57666" lon="0.83717">
        <ele>166.93</ele>
        <time>2013-05-26T07:18:24Z</time>
      </trkpt>
      <trkpt lat="44.57645" lon="0.83714">
        <ele>166.45</ele>
        <time>2013-05-26T07:18:28Z</time>
      </trkpt>
      <trkpt lat="44.57619" lon="0.83711">
        <ele>165.48</ele>
        <time>2013-05-26T07:18:32Z</time>
      </trkpt>
      <trkpt lat="44.57574" lon="0.83728">
        <ele>161.64</ele>
        <time>2013-05-26T07:18:39Z</time>
      </trkpt>
      <trkpt lat="44.57546" lon="0.83739">
        <ele>158.75</ele>
        <time>2013-05-26T07:18:43Z</time>
      </trkpt>
      <trkpt lat="44.57532" lon="0.83745">
        <ele>157.31</ele>
        <time>2013-05-26T07:18:45Z</time>
      </trkpt>
      <trkpt lat="44.5749" lon="0.83781">
        <ele>154.43</ele>
        <time>2013-05-26T07:18:52Z</time>
      </trkpt>
      <trkpt lat="44.57483" lon="0.83783">
        <ele>154.43</ele>
        <time>2013-05-26T07:18:53Z</time>
      </trkpt>
      <trkpt lat="44.57469" lon="0.83809">
        <ele>152.51</ele>
        <time>2013-05-26T07:18:58Z</time>
      </trkpt>
      <trkpt lat="44.5746" lon="0.83846">
        <ele>150.58</ele>
        <time>2013-05-26T07:19:02Z</time>
      </trkpt>
      <trkpt lat="44.57427" lon="0.8387">
        <ele>148.66</ele>
        <time>2013-05-26T07:19:09Z</time>
      </trkpt>
      <trkpt lat="44.57422" lon="0.83876">
        <ele>145.78</ele>
        <time>2013-05-26T07:19:17Z</time>
      </trkpt>
      <trkpt lat="44.5742" lon="0.83878">
        <ele>144.34</ele>
        <time>2013-05-26T07:19:39Z</time>
      </trkpt>
      <trkpt lat="44.57413" lon="0.83886">
        <ele>144.82</ele>
        <time>2013-05-26T07:19:55Z</time>
      </trkpt>
      <trkpt lat="44.57404" lon="0.83915">
        <ele>147.7</ele>
        <time>2013-05-26T07:20:04Z</time>
      </trkpt>
      <trkpt lat="44.57388" lon="0.83956">
        <ele>153.47</ele>
        <time>2013-05-26T07:20:15Z</time>
      </trkpt>
      <trkpt lat="44.5738" lon="0.84012">
        <ele>156.35</ele>
        <time>2013-05-26T07:20:27Z</time>
      </trkpt>
      <trkpt lat="44.57362" lon="0.84052">
        <ele>159.24</ele>
        <time>2013-05-26T07:20:38Z</time>
      </trkpt>
      <trkpt lat="44.57333" lon="0.84097">
        <ele>159.72</ele>
        <time>2013-05-26T07:20:52Z</time>
      </trkpt>
      <trkpt lat="44.57322" lon="0.84129">
        <ele>161.64</ele>
        <time>2013-05-26T07:21:01Z</time>
      </trkpt>
      <trkpt lat="44.57313" lon="0.84138">
        <ele>162.12</ele>
        <time>2013-05-26T07:21:05Z</time>
      </trkpt>
      <trkpt lat="44.57282" lon="0.84174">
        <ele>165</ele>
        <time>2013-05-26T07:21:20Z</time>
      </trkpt>
      <trkpt lat="44.57269" lon="0.84204">
        <ele>167.89</ele>
        <time>2013-05-26T07:21:31Z</time>
      </trkpt>
      <trkpt lat="44.5727" lon="0.84209">
        <ele>167.41</ele>
        <time>2013-05-26T07:21:33Z</time>
      </trkpt>
      <trkpt lat="44.57266" lon="0.84233">
        <ele>167.89</ele>
        <time>2013-05-26T07:21:39Z</time>
      </trkpt>
      <trkpt lat="44.57241" lon="0.84273">
        <ele>169.81</ele>
        <time>2013-05-26T07:21:52Z</time>
      </trkpt>
      <trkpt lat="44.57232" lon="0.84316">
        <ele>170.77</ele>
        <time>2013-05-26T07:22:02Z</time>
      </trkpt>
      <trkpt lat="44.57216" lon="0.84369">
        <ele>174.14</ele>
        <time>2013-05-26T07:22:14Z</time>
      </trkpt>
      <trkpt lat="44.57206" lon="0.84419">
        <ele>178.94</ele>
        <time>2013-05-26T07:22:26Z</time>
      </trkpt>
      <trkpt lat="44.57205" lon="0.84462">
        <ele>181.35</ele>
        <time>2013-05-26T07:22:36Z</time>
      </trkpt>
      <trkpt lat="44.57205" lon="0.84466">
        <ele>181.83</ele>
        <time>2013-05-26T07:22:37Z</time>
      </trkpt>
      <trkpt lat="44.57201" lon="0.84481">
        <ele>182.31</ele>
        <time>2013-05-26T07:22:41Z</time>
      </trkpt>
      <trkpt lat="44.57201" lon="0.84488">
        <ele>179.42</ele>
        <time>2013-05-26T07:22:52Z</time>
      </trkpt>
      <trkpt lat="44.57201" lon="0.84492">
        <ele>177.02</ele>
        <time>2013-05-26T07:23:11Z</time>
      </trkpt>
      <trkpt lat="44.57199" lon="0.84488">
        <ele>176.06</ele>
        <time>2013-05-26T07:23:32Z</time>
      </trkpt>
      <trkpt lat="44.572" lon="0.84492">
        <ele>176.06</ele>
        <time>2013-05-26T07:23:56Z</time>
      </trkpt>
      <trkpt lat="44.57198" lon="0.84491">
        <ele>173.66</ele>
        <time>2013-05-26T07:24:23Z</time>
      </trkpt>
      <trkpt lat="44.57203" lon="0.84503">
        <ele>172.69</ele>
        <time>2013-05-26T07:24:48Z</time>
      </trkpt>
      <trkpt lat="44.57213" lon="0.84566">
        <ele>171.73</ele>
        <time>2013-05-26T07:25:00Z</time>
      </trkpt>
      <trkpt lat="44.5722" lon="0.84656">
        <ele>174.62</ele>
        <time>2013-05-26T07:25:17Z</time>
      </trkpt>
      <trkpt lat="44.57221" lon="0.84722">
        <ele>178.94</ele>
        <time>2013-05-26T07:25:30Z</time>
      </trkpt>
      <trkpt lat="44.57225" lon="0.8479">
        <ele>184.23</ele>
        <time>2013-05-26T07:25:43Z</time>
      </trkpt>
      <trkpt lat="44.57226" lon="0.84814">
        <ele>185.19</ele>
        <time>2013-05-26T07:25:47Z</time>
      </trkpt>
      <trkpt lat="44.57232" lon="0.84846">
        <ele>183.75</ele>
        <time>2013-05-26T07:25:52Z</time>
      </trkpt>
      <trkpt lat="44.57245" lon="0.84928">
        <ele>177.98</ele>
        <time>2013-05-26T07:26:05Z</time>
      </trkpt>
      <trkpt lat="44.57262" lon="0.85003">
        <ele>174.62</ele>
        <time>2013-05-26T07:26:16Z</time>
      </trkpt>
      <trkpt lat="44.57264" lon="0.85009">
        <ele>174.14</ele>
        <time>2013-05-26T07:26:17Z</time>
      </trkpt>
      <trkpt lat="44.57281" lon="0.85065">
        <ele>172.69</ele>
        <time>2013-05-26T07:26:26Z</time>
      </trkpt>
      <trkpt lat="44.57284" lon="0.85071">
        <ele>172.21</ele>
        <time>2013-05-26T07:26:27Z</time>
      </trkpt>
      <trkpt lat="44.57318" lon="0.85144">
        <ele>171.25</ele>
        <time>2013-05-26T07:26:41Z</time>
      </trkpt>
      <trkpt lat="44.5732" lon="0.85149">
        <ele>171.25</ele>
        <time>2013-05-26T07:26:42Z</time>
      </trkpt>
      <trkpt lat="44.57323" lon="0.85154">
        <ele>170.77</ele>
        <time>2013-05-26T07:26:43Z</time>
      </trkpt>
      <trkpt lat="44.57339" lon="0.85193">
        <ele>170.77</ele>
        <time>2013-05-26T07:26:51Z</time>
      </trkpt>
      <trkpt lat="44.57353" lon="0.85222">
        <ele>170.77</ele>
        <time>2013-05-26T07:26:57Z</time>
      </trkpt>
      <trkpt lat="44.57379" lon="0.85275">
        <ele>170.29</ele>
        <time>2013-05-26T07:27:11Z</time>
      </trkpt>
      <trkpt lat="44.5738" lon="0.85277">
        <ele>170.77</ele>
        <time>2013-05-26T07:27:12Z</time>
      </trkpt>
      <trkpt lat="44.57381" lon="0.85279">
        <ele>170.77</ele>
        <time>2013-05-26T07:27:13Z</time>
      </trkpt>
      <trkpt lat="44.57396" lon="0.8532">
        <ele>170.77</ele>
        <time>2013-05-26T07:27:23Z</time>
      </trkpt>
      <trkpt lat="44.57396" lon="0.85323">
        <ele>170.77</ele>
        <time>2013-05-26T07:27:24Z</time>
      </trkpt>
      <trkpt lat="44.57366" lon="0.85363">
        <ele>171.25</ele>
        <time>2013-05-26T07:27:34Z</time>
      </trkpt>
      <trkpt lat="44.57352" lon="0.85379">
        <ele>170.77</ele>
        <time>2013-05-26T07:27:39Z</time>
      </trkpt>
      <trkpt lat="44.57351" lon="0.85389">
        <ele>172.21</ele>
        <time>2013-05-26T07:27:45Z</time>
      </trkpt>
      <trkpt lat="44.57351" lon="0.85405">
        <ele>172.69</ele>
        <time>2013-05-26T07:27:51Z</time>
      </trkpt>
      <trkpt lat="44.57358" lon="0.85429">
        <ele>173.66</ele>
        <time>2013-05-26T07:27:56Z</time>
      </trkpt>
      <trkpt lat="44.57353" lon="0.8544">
        <ele>175.1</ele>
        <time>2013-05-26T07:28:00Z</time>
      </trkpt>
      <trkpt lat="44.57327" lon="0.85447">
        <ele>177.5</ele>
        <time>2013-05-26T07:28:07Z</time>
      </trkpt>
      <trkpt lat="44.57299" lon="0.85442">
        <ele>177.02</ele>
        <time>2013-05-26T07:28:12Z</time>
      </trkpt>
      <trkpt lat="44.57281" lon="0.85445">
        <ele>177.02</ele>
        <time>2013-05-26T07:28:15Z</time>
      </trkpt>
      <trkpt lat="44.57269" lon="0.85447">
        <ele>177.02</ele>
        <time>2013-05-26T07:28:17Z</time>
      </trkpt>
      <trkpt lat="44.57188" lon="0.85446">
        <ele>172.69</ele>
        <time>2013-05-26T07:28:28Z</time>
      </trkpt>
      <trkpt lat="44.57181" lon="0.85446">
        <ele>172.69</ele>
        <time>2013-05-26T07:28:29Z</time>
      </trkpt>
      <trkpt lat="44.57164" lon="0.85451">
        <ele>173.17</ele>
        <time>2013-05-26T07:28:32Z</time>
      </trkpt>
      <trkpt lat="44.57134" lon="0.8548">
        <ele>176.06</ele>
        <time>2013-05-26T07:28:40Z</time>
      </trkpt>
      <trkpt lat="44.57116" lon="0.85462">
        <ele>178.94</ele>
        <time>2013-05-26T07:28:47Z</time>
      </trkpt>
      <trkpt lat="44.57113" lon="0.85453">
        <ele>178.94</ele>
        <time>2013-05-26T07:28:49Z</time>
      </trkpt>
      <trkpt lat="44.57072" lon="0.85439">
        <ele>179.42</ele>
        <time>2013-05-26T07:29:00Z</time>
      </trkpt>
      <trkpt lat="44.57028" lon="0.85439">
        <ele>180.87</ele>
        <time>2013-05-26T07:29:11Z</time>
      </trkpt>
      <trkpt lat="44.56978" lon="0.85437">
        <ele>182.31</ele>
        <time>2013-05-26T07:29:24Z</time>
      </trkpt>
      <trkpt lat="44.56921" lon="0.85433">
        <ele>180.87</ele>
        <time>2013-05-26T07:29:38Z</time>
      </trkpt>
      <trkpt lat="44.56904" lon="0.85431">
        <ele>180.38</ele>
        <time>2013-05-26T07:29:42Z</time>
      </trkpt>
      <trkpt lat="44.56879" lon="0.85433">
        <ele>181.35</ele>
        <time>2013-05-26T07:29:48Z</time>
      </trkpt>
      <trkpt lat="44.5687" lon="0.85435">
        <ele>181.35</ele>
        <time>2013-05-26T07:29:50Z</time>
      </trkpt>
      <trkpt lat="44.56858" lon="0.85438">
        <ele>181.35</ele>
        <time>2013-05-26T07:29:53Z</time>
      </trkpt>
      <trkpt lat="44.56854" lon="0.85439">
        <ele>181.83</ele>
        <time>2013-05-26T07:29:54Z</time>
      </trkpt>
      <trkpt lat="44.56849" lon="0.85438">
        <ele>181.83</ele>
        <time>2013-05-26T07:29:55Z</time>
      </trkpt>
      <trkpt lat="44.56814" lon="0.8543">
        <ele>180.87</ele>
        <time>2013-05-26T07:30:05Z</time>
      </trkpt>
      <trkpt lat="44.56812" lon="0.8543">
        <ele>180.38</ele>
        <time>2013-05-26T07:30:06Z</time>
      </trkpt>
      <trkpt lat="44.56811" lon="0.85431">
        <ele>180.38</ele>
        <time>2013-05-26T07:30:07Z</time>
      </trkpt>
      <trkpt lat="44.56809" lon="0.85431">
        <ele>180.38</ele>
        <time>2013-05-26T07:30:08Z</time>
      </trkpt>
      <trkpt lat="44.56808" lon="0.85431">
        <ele>180.38</ele>
        <time>2013-05-26T07:30:09Z</time>
      </trkpt>
      <trkpt lat="44.56806" lon="0.85431">
        <ele>179.9</ele>
        <time>2013-05-26T07:30:24Z</time>
      </trkpt>
      <trkpt lat="44.56806" lon="0.85431">
        <ele>179.9</ele>
        <time>2013-05-26T07:30:47Z</time>
      </trkpt>
      <trkpt lat="44.56805" lon="0.85432">
        <ele>179.9</ele>
        <time>2013-05-26T07:31:01Z</time>
      </trkpt>
      <trkpt lat="44.56804" lon="0.85432">
        <ele>180.87</ele>
        <time>2013-05-26T07:31:25Z</time>
      </trkpt>
      <trkpt lat="44.56805" lon="0.85434">
        <ele>183.27</ele>
        <time>2013-05-26T07:31:48Z</time>
      </trkpt>
      <trkpt lat="44.56805" lon="0.85432">
        <ele>184.71</ele>
        <time>2013-05-26T07:31:57Z</time>
      </trkpt>
      <trkpt lat="44.56777" lon="0.85439">
        <ele>181.83</ele>
        <time>2013-05-26T07:32:11Z</time>
      </trkpt>
      <trkpt lat="44.56739" lon="0.85459">
        <ele>181.35</ele>
        <time>2013-05-26T07:32:24Z</time>
      </trkpt>
      <trkpt lat="44.567" lon="0.85483">
        <ele>182.31</ele>
        <time>2013-05-26T07:32:35Z</time>
      </trkpt>
      <trkpt lat="44.56668" lon="0.85507">
        <ele>185.19</ele>
        <time>2013-05-26T07:32:46Z</time>
      </trkpt>
      <trkpt lat="44.56652" lon="0.85551">
        <ele>187.59</ele>
        <time>2013-05-26T07:32:57Z</time>
      </trkpt>
      <trkpt lat="44.56651" lon="0.85557">
        <ele>187.11</ele>
        <time>2013-05-26T07:32:58Z</time>
      </trkpt>
      <trkpt lat="44.56636" lon="0.85633">
        <ele>185.67</ele>
        <time>2013-05-26T07:33:10Z</time>
      </trkpt>
      <trkpt lat="44.56635" lon="0.8564">
        <ele>185.67</ele>
        <time>2013-05-26T07:33:11Z</time>
      </trkpt>
      <trkpt lat="44.56634" lon="0.85647">
        <ele>185.67</ele>
        <time>2013-05-26T07:33:12Z</time>
      </trkpt>
      <trkpt lat="44.56622" lon="0.85721">
        <ele>184.23</ele>
        <time>2013-05-26T07:33:21Z</time>
      </trkpt>
      <trkpt lat="44.5662" lon="0.85748">
        <ele>184.23</ele>
        <time>2013-05-26T07:33:24Z</time>
      </trkpt>
      <trkpt lat="44.56621" lon="0.85757">
        <ele>184.23</ele>
        <time>2013-05-26T07:33:25Z</time>
      </trkpt>
      <trkpt lat="44.56623" lon="0.85878">
        <ele>181.35</ele>
        <time>2013-05-26T07:33:37Z</time>
      </trkpt>
      <trkpt lat="44.56602" lon="0.86031">
        <ele>172.69</ele>
        <time>2013-05-26T07:33:50Z</time>
      </trkpt>
      <trkpt lat="44.56595" lon="0.86051">
        <ele>171.73</ele>
        <time>2013-05-26T07:33:52Z</time>
      </trkpt>
      <trkpt lat="44.56591" lon="0.86059">
        <ele>171.25</ele>
        <time>2013-05-26T07:33:53Z</time>
      </trkpt>
      <trkpt lat="44.56586" lon="0.86067">
        <ele>170.77</ele>
        <time>2013-05-26T07:33:54Z</time>
      </trkpt>
      <trkpt lat="44.56581" lon="0.86074">
        <ele>170.29</ele>
        <time>2013-05-26T07:33:55Z</time>
      </trkpt>
      <trkpt lat="44.56575" lon="0.8608">
        <ele>170.29</ele>
        <time>2013-05-26T07:33:56Z</time>
      </trkpt>
      <trkpt lat="44.56562" lon="0.86092">
        <ele>169.33</ele>
        <time>2013-05-26T07:33:58Z</time>
      </trkpt>
      <trkpt lat="44.56547" lon="0.86101">
        <ele>167.89</ele>
        <time>2013-05-26T07:34:00Z</time>
      </trkpt>
      <trkpt lat="44.5654" lon="0.86103">
        <ele>167.41</ele>
        <time>2013-05-26T07:34:01Z</time>
      </trkpt>
      <trkpt lat="44.5643" lon="0.86118">
        <ele>162.6</ele>
        <time>2013-05-26T07:34:16Z</time>
      </trkpt>
      <trkpt lat="44.56323" lon="0.86134">
        <ele>157.31</ele>
        <time>2013-05-26T07:34:31Z</time>
      </trkpt>
      <trkpt lat="44.56275" lon="0.86139">
        <ele>152.99</ele>
        <time>2013-05-26T07:34:41Z</time>
      </trkpt>
      <trkpt lat="44.56274" lon="0.86141">
        <ele>152.51</ele>
        <time>2013-05-26T07:34:42Z</time>
      </trkpt>
      <trkpt lat="44.56279" lon="0.86154">
        <ele>151.54</ele>
        <time>2013-05-26T07:34:50Z</time>
      </trkpt>
      <trkpt lat="44.56305" lon="0.86174">
        <ele>155.39</ele>
        <time>2013-05-26T07:35:02Z</time>
      </trkpt>
      <trkpt lat="44.56332" lon="0.86208">
        <ele>161.16</ele>
        <time>2013-05-26T07:35:13Z</time>
      </trkpt>
      <trkpt lat="44.56345" lon="0.8625">
        <ele>164.04</ele>
        <time>2013-05-26T07:35:24Z</time>
      </trkpt>
      <trkpt lat="44.56349" lon="0.86288">
        <ele>164.04</ele>
        <time>2013-05-26T07:35:34Z</time>
      </trkpt>
      <trkpt lat="44.56362" lon="0.86342">
        <ele>161.16</ele>
        <time>2013-05-26T07:35:44Z</time>
      </trkpt>
      <trkpt lat="44.5638" lon="0.86388">
        <ele>159.72</ele>
        <time>2013-05-26T07:35:55Z</time>
      </trkpt>
      <trkpt lat="44.56386" lon="0.86414">
        <ele>160.68</ele>
        <time>2013-05-26T07:36:00Z</time>
      </trkpt>
      <trkpt lat="44.56387" lon="0.86455">
        <ele>163.56</ele>
        <time>2013-05-26T07:36:10Z</time>
      </trkpt>
      <trkpt lat="44.56367" lon="0.86502">
        <ele>167.41</ele>
        <time>2013-05-26T07:36:22Z</time>
      </trkpt>
      <trkpt lat="44.56342" lon="0.86544">
        <ele>169.81</ele>
        <time>2013-05-26T07:36:32Z</time>
      </trkpt>
      <trkpt lat="44.56314" lon="0.86583">
        <ele>177.5</ele>
        <time>2013-05-26T07:36:43Z</time>
      </trkpt>
      <trkpt lat="44.56304" lon="0.86598">
        <ele>181.83</ele>
        <time>2013-05-26T07:36:48Z</time>
      </trkpt>
      <trkpt lat="44.56309" lon="0.86651">
        <ele>188.08</ele>
        <time>2013-05-26T07:37:01Z</time>
      </trkpt>
      <trkpt lat="44.56319" lon="0.86691">
        <ele>185.19</ele>
        <time>2013-05-26T07:37:11Z</time>
      </trkpt>
      <trkpt lat="44.56334" lon="0.86748">
        <ele>183.27</ele>
        <time>2013-05-26T07:37:22Z</time>
      </trkpt>
      <trkpt lat="44.56338" lon="0.86796">
        <ele>181.83</ele>
        <time>2013-05-26T07:37:31Z</time>
      </trkpt>
      <trkpt lat="44.56328" lon="0.86812">
        <ele>179.9</ele>
        <time>2013-05-26T07:37:37Z</time>
      </trkpt>
      <trkpt lat="44.56324" lon="0.86821">
        <ele>179.9</ele>
        <time>2013-05-26T07:37:39Z</time>
      </trkpt>
      <trkpt lat="44.56315" lon="0.86853">
        <ele>186.63</ele>
        <time>2013-05-26T07:37:51Z</time>
      </trkpt>
      <trkpt lat="44.56313" lon="0.86856">
        <ele>185.67</ele>
        <time>2013-05-26T07:37:55Z</time>
      </trkpt>
      <trkpt lat="44.56292" lon="0.86858">
        <ele>187.11</ele>
        <time>2013-05-26T07:38:06Z</time>
      </trkpt>
      <trkpt lat="44.5629" lon="0.8686">
        <ele>187.59</ele>
        <time>2013-05-26T07:38:07Z</time>
      </trkpt>
      <trkpt lat="44.56279" lon="0.86863">
        <ele>190</ele>
        <time>2013-05-26T07:38:12Z</time>
      </trkpt>
      <trkpt lat="44.56278" lon="0.8688">
        <ele>192.88</ele>
        <time>2013-05-26T07:38:17Z</time>
      </trkpt>
      <trkpt lat="44.56282" lon="0.8692">
        <ele>195.28</ele>
        <time>2013-05-26T07:38:26Z</time>
      </trkpt>
      <trkpt lat="44.56288" lon="0.86975">
        <ele>197.21</ele>
        <time>2013-05-26T07:38:38Z</time>
      </trkpt>
      <trkpt lat="44.56289" lon="0.86979">
        <ele>197.69</ele>
        <time>2013-05-26T07:38:39Z</time>
      </trkpt>
      <trkpt lat="44.5629" lon="0.86995">
        <ele>199.13</ele>
        <time>2013-05-26T07:38:43Z</time>
      </trkpt>
      <trkpt lat="44.56292" lon="0.87001">
        <ele>199.13</ele>
        <time>2013-05-26T07:38:45Z</time>
      </trkpt>
      <trkpt lat="44.56297" lon="0.87009">
        <ele>199.61</ele>
        <time>2013-05-26T07:38:48Z</time>
      </trkpt>
      <trkpt lat="44.56291" lon="0.87053">
        <ele>199.61</ele>
        <time>2013-05-26T07:38:56Z</time>
      </trkpt>
      <trkpt lat="44.5629" lon="0.87107">
        <ele>209.22</ele>
        <time>2013-05-26T07:39:09Z</time>
      </trkpt>
      <trkpt lat="44.56291" lon="0.87129">
        <ele>215.47</ele>
        <time>2013-05-26T07:39:15Z</time>
      </trkpt>
      <trkpt lat="44.563" lon="0.87136">
        <ele>216.91</ele>
        <time>2013-05-26T07:39:19Z</time>
      </trkpt>
      <trkpt lat="44.56338" lon="0.87144">
        <ele>213.07</ele>
        <time>2013-05-26T07:39:33Z</time>
      </trkpt>
      <trkpt lat="44.56347" lon="0.8715">
        <ele>213.07</ele>
        <time>2013-05-26T07:39:38Z</time>
      </trkpt>
      <trkpt lat="44.5637" lon="0.87181">
        <ele>215.47</ele>
        <time>2013-05-26T07:39:51Z</time>
      </trkpt>
      <trkpt lat="44.56379" lon="0.8721">
        <ele>205.86</ele>
        <time>2013-05-26T07:40:04Z</time>
      </trkpt>
      <trkpt lat="44.5638" lon="0.87215">
        <ele>200.09</ele>
        <time>2013-05-26T07:40:25Z</time>
      </trkpt>
      <trkpt lat="44.56381" lon="0.87215">
        <ele>199.61</ele>
        <time>2013-05-26T07:40:49Z</time>
      </trkpt>
      <trkpt lat="44.56381" lon="0.87217">
        <ele>199.13</ele>
        <time>2013-05-26T07:41:08Z</time>
      </trkpt>
      <trkpt lat="44.56381" lon="0.87216">
        <ele>198.65</ele>
        <time>2013-05-26T07:41:29Z</time>
      </trkpt>
      <trkpt lat="44.56382" lon="0.87215">
        <ele>199.13</ele>
        <time>2013-05-26T07:41:48Z</time>
      </trkpt>
      <trkpt lat="44.56383" lon="0.87215">
        <ele>199.61</ele>
        <time>2013-05-26T07:42:15Z</time>
      </trkpt>
      <trkpt lat="44.56384" lon="0.87214">
        <ele>199.61</ele>
        <time>2013-05-26T07:42:35Z</time>
      </trkpt>
      <trkpt lat="44.56383" lon="0.87213">
        <ele>198.17</ele>
        <time>2013-05-26T07:42:56Z</time>
      </trkpt>
      <trkpt lat="44.5638" lon="0.87217">
        <ele>197.69</ele>
        <time>2013-05-26T07:43:16Z</time>
      </trkpt>
      <trkpt lat="44.56381" lon="0.87217">
        <ele>195.77</ele>
        <time>2013-05-26T07:43:42Z</time>
      </trkpt>
      <trkpt lat="44.56381" lon="0.87217">
        <ele>197.69</ele>
        <time>2013-05-26T07:43:56Z</time>
      </trkpt>
      <trkpt lat="44.56382" lon="0.87215">
        <ele>199.61</ele>
        <time>2013-05-26T07:44:17Z</time>
      </trkpt>
      <trkpt lat="44.56383" lon="0.87213">
        <ele>200.09</ele>
        <time>2013-05-26T07:44:35Z</time>
      </trkpt>
      <trkpt lat="44.56383" lon="0.87214">
        <ele>201.05</ele>
        <time>2013-05-26T07:44:53Z</time>
      </trkpt>
      <trkpt lat="44.56382" lon="0.87214">
        <ele>200.57</ele>
        <time>2013-05-26T07:45:08Z</time>
      </trkpt>
      <trkpt lat="44.56382" lon="0.87217">
        <ele>200.09</ele>
        <time>2013-05-26T07:45:24Z</time>
      </trkpt>
      <trkpt lat="44.56381" lon="0.87217">
        <ele>197.69</ele>
        <time>2013-05-26T07:45:40Z</time>
      </trkpt>
      <trkpt lat="44.56381" lon="0.87217">
        <ele>195.77</ele>
        <time>2013-05-26T07:45:59Z</time>
      </trkpt>
      <trkpt lat="44.56381" lon="0.87217">
        <ele>196.25</ele>
        <time>2013-05-26T07:46:03Z</time>
      </trkpt>
      <trkpt lat="44.56377" lon="0.87219">
        <ele>196.25</ele>
        <time>2013-05-26T07:46:06Z</time>
      </trkpt>
      <trkpt lat="44.56373" lon="0.8722">
        <ele>195.77</ele>
        <time>2013-05-26T07:46:08Z</time>
      </trkpt>
      <trkpt lat="44.56371" lon="0.87221">
        <ele>195.77</ele>
        <time>2013-05-26T07:46:09Z</time>
      </trkpt>
      <trkpt lat="44.56328" lon="0.87245">
        <ele>193.36</ele>
        <time>2013-05-26T07:46:20Z</time>
      </trkpt>
      <trkpt lat="44.56293" lon="0.87263">
        <ele>193.36</ele>
        <time>2013-05-26T07:46:31Z</time>
      </trkpt>
      <trkpt lat="44.56259" lon="0.87269">
        <ele>192.88</ele>
        <time>2013-05-26T07:46:45Z</time>
      </trkpt>
      <trkpt lat="44.56204" lon="0.87276">
        <ele>190.96</ele>
        <time>2013-05-26T07:47:00Z</time>
      </trkpt>
      <trkpt lat="44.56145" lon="0.87268">
        <ele>190</ele>
        <time>2013-05-26T07:47:15Z</time>
      </trkpt>
      <trkpt lat="44.56091" lon="0.8726">
        <ele>188.56</ele>
        <time>2013-05-26T07:47:28Z</time>
      </trkpt>
      <trkpt lat="44.56015" lon="0.87261">
        <ele>185.67</ele>
        <time>2013-05-26T07:47:42Z</time>
      </trkpt>
      <trkpt lat="44.55906" lon="0.87264">
        <ele>176.54</ele>
        <time>2013-05-26T07:47:57Z</time>
      </trkpt>
      <trkpt lat="44.5581" lon="0.87282">
        <ele>167.89</ele>
        <time>2013-05-26T07:48:07Z</time>
      </trkpt>
      <trkpt lat="44.55799" lon="0.87286">
        <ele>166.93</ele>
        <time>2013-05-26T07:48:08Z</time>
      </trkpt>
      <trkpt lat="44.55789" lon="0.87293">
        <ele>165.96</ele>
        <time>2013-05-26T07:48:09Z</time>
      </trkpt>
      <trkpt lat="44.5578" lon="0.87302">
        <ele>165</ele>
        <time>2013-05-26T07:48:10Z</time>
      </trkpt>
      <trkpt lat="44.55771" lon="0.87311">
        <ele>164.52</ele>
        <time>2013-05-26T07:48:11Z</time>
      </trkpt>
      <trkpt lat="44.55698" lon="0.87391">
        <ele>164.52</ele>
        <time>2013-05-26T07:48:21Z</time>
      </trkpt>
      <trkpt lat="44.55659" lon="0.8743">
        <ele>164.04</ele>
        <time>2013-05-26T07:48:31Z</time>
      </trkpt>
      <trkpt lat="44.55647" lon="0.87442">
        <ele>163.56</ele>
        <time>2013-05-26T07:48:36Z</time>
      </trkpt>
      <trkpt lat="44.55648" lon="0.87445">
        <ele>163.56</ele>
        <time>2013-05-26T07:48:37Z</time>
      </trkpt>
      <trkpt lat="44.5566" lon="0.87461">
        <ele>164.04</ele>
        <time>2013-05-26T07:48:42Z</time>
      </trkpt>
      <trkpt lat="44.55689" lon="0.87493">
        <ele>170.77</ele>
        <time>2013-05-26T07:48:54Z</time>
      </trkpt>
      <trkpt lat="44.55698" lon="0.87503">
        <ele>173.17</ele>
        <time>2013-05-26T07:48:58Z</time>
      </trkpt>
      <trkpt lat="44.55699" lon="0.87521">
        <ele>171.73</ele>
        <time>2013-05-26T07:49:02Z</time>
      </trkpt>
      <trkpt lat="44.55698" lon="0.87563">
        <ele>168.85</ele>
        <time>2013-05-26T07:49:08Z</time>
      </trkpt>
      <trkpt lat="44.55687" lon="0.8764">
        <ele>166.93</ele>
        <time>2013-05-26T07:49:20Z</time>
      </trkpt>
      <trkpt lat="44.55684" lon="0.87669">
        <ele>166.93</ele>
        <time>2013-05-26T07:49:27Z</time>
      </trkpt>
      <trkpt lat="44.55702" lon="0.87697">
        <ele>166.93</ele>
        <time>2013-05-26T07:49:38Z</time>
      </trkpt>
      <trkpt lat="44.55726" lon="0.87722">
        <ele>165.48</ele>
        <time>2013-05-26T07:49:48Z</time>
      </trkpt>
      <trkpt lat="44.55765" lon="0.87766">
        <ele>168.37</ele>
        <time>2013-05-26T07:50:01Z</time>
      </trkpt>
      <trkpt lat="44.55803" lon="0.87799">
        <ele>172.69</ele>
        <time>2013-05-26T07:50:20Z</time>
      </trkpt>
      <trkpt lat="44.55823" lon="0.87828">
        <ele>175.1</ele>
        <time>2013-05-26T07:50:33Z</time>
      </trkpt>
      <trkpt lat="44.55844" lon="0.87868">
        <ele>170.77</ele>
        <time>2013-05-26T07:50:45Z</time>
      </trkpt>
      <trkpt lat="44.55852" lon="0.87882">
        <ele>167.41</ele>
        <time>2013-05-26T07:50:51Z</time>
      </trkpt>
      <trkpt lat="44.55861" lon="0.87904">
        <ele>165.96</ele>
        <time>2013-05-26T07:50:57Z</time>
      </trkpt>
      <trkpt lat="44.55866" lon="0.87924">
        <ele>165.48</ele>
        <time>2013-05-26T07:51:00Z</time>
      </trkpt>
      <trkpt lat="44.55865" lon="0.87978">
        <ele>160.68</ele>
        <time>2013-05-26T07:51:09Z</time>
      </trkpt>
      <trkpt lat="44.55844" lon="0.88018">
        <ele>156.35</ele>
        <time>2013-05-26T07:51:16Z</time>
      </trkpt>
      <trkpt lat="44.55831" lon="0.88064">
        <ele>154.43</ele>
        <time>2013-05-26T07:51:23Z</time>
      </trkpt>
      <trkpt lat="44.55809" lon="0.88094">
        <ele>153.95</ele>
        <time>2013-05-26T07:51:28Z</time>
      </trkpt>
      <trkpt lat="44.55784" lon="0.8815">
        <ele>154.91</ele>
        <time>2013-05-26T07:51:39Z</time>
      </trkpt>
      <trkpt lat="44.55772" lon="0.88188">
        <ele>156.35</ele>
        <time>2013-05-26T07:51:51Z</time>
      </trkpt>
      <trkpt lat="44.55765" lon="0.88214">
        <ele>157.79</ele>
        <time>2013-05-26T07:52:03Z</time>
      </trkpt>
      <trkpt lat="44.55759" lon="0.88232">
        <ele>155.39</ele>
        <time>2013-05-26T07:52:29Z</time>
      </trkpt>
      <trkpt lat="44.55743" lon="0.8827">
        <ele>157.31</ele>
        <time>2013-05-26T07:52:40Z</time>
      </trkpt>
      <trkpt lat="44.55724" lon="0.8831">
        <ele>157.79</ele>
        <time>2013-05-26T07:52:51Z</time>
      </trkpt>
      <trkpt lat="44.55706" lon="0.8834">
        <ele>155.39</ele>
        <time>2013-05-26T07:52:59Z</time>
      </trkpt>
      <trkpt lat="44.55695" lon="0.88356">
        <ele>154.43</ele>
        <time>2013-05-26T07:53:04Z</time>
      </trkpt>
      <trkpt lat="44.55669" lon="0.88378">
        <ele>153.47</ele>
        <time>2013-05-26T07:53:16Z</time>
      </trkpt>
      <trkpt lat="44.55658" lon="0.88393">
        <ele>152.99</ele>
        <time>2013-05-26T07:53:22Z</time>
      </trkpt>
      <trkpt lat="44.55662" lon="0.88405">
        <ele>151.54</ele>
        <time>2013-05-26T07:53:26Z</time>
      </trkpt>
      <trkpt lat="44.55684" lon="0.88432">
        <ele>138.57</ele>
        <time>2013-05-26T07:53:38Z</time>
      </trkpt>
      <trkpt lat="44.55697" lon="0.88431">
        <ele>133.76</ele>
        <time>2013-05-26T07:53:44Z</time>
      </trkpt>
      <trkpt lat="44.55724" lon="0.88415">
        <ele>130.4</ele>
        <time>2013-05-26T07:53:55Z</time>
      </trkpt>
      <trkpt lat="44.5574" lon="0.884">
        <ele>127.03</ele>
        <time>2013-05-26T07:54:06Z</time>
      </trkpt>
      <trkpt lat="44.55767" lon="0.88366">
        <ele>123.67</ele>
        <time>2013-05-26T07:54:17Z</time>
      </trkpt>
      <trkpt lat="44.55783" lon="0.88346">
        <ele>122.71</ele>
        <time>2013-05-26T07:54:23Z</time>
      </trkpt>
      <trkpt lat="44.55797" lon="0.88359">
        <ele>121.26</ele>
        <time>2013-05-26T07:54:29Z</time>
      </trkpt>
      <trkpt lat="44.55817" lon="0.88372">
        <ele>119.82</ele>
        <time>2013-05-26T07:54:33Z</time>
      </trkpt>
      <trkpt lat="44.55822" lon="0.88373">
        <ele>119.82</ele>
        <time>2013-05-26T07:54:34Z</time>
      </trkpt>
      <trkpt lat="44.55827" lon="0.88371">
        <ele>119.34</ele>
        <time>2013-05-26T07:54:41Z</time>
      </trkpt>
      <trkpt lat="44.55828" lon="0.8837">
        <ele>118.86</ele>
        <time>2013-05-26T07:54:50Z</time>
      </trkpt>
      <trkpt lat="44.55828" lon="0.88372">
        <ele>117.9</ele>
        <time>2013-05-26T07:55:01Z</time>
      </trkpt>
      <trkpt lat="44.55828" lon="0.88373">
        <ele>116.46</ele>
        <time>2013-05-26T07:55:20Z</time>
      </trkpt>
      <trkpt lat="44.55828" lon="0.88371">
        <ele>116.46</ele>
        <time>2013-05-26T07:55:42Z</time>
      </trkpt>
      <trkpt lat="44.55828" lon="0.88371">
        <ele>115.98</ele>
        <time>2013-05-26T07:55:58Z</time>
      </trkpt>
      <trkpt lat="44.55831" lon="0.88372">
        <ele>115.5</ele>
        <time>2013-05-26T07:56:10Z</time>
      </trkpt>
      <trkpt lat="44.55832" lon="0.88374">
        <ele>115.5</ele>
        <time>2013-05-26T07:56:11Z</time>
      </trkpt>
      <trkpt lat="44.55835" lon="0.88374">
        <ele>115.5</ele>
        <time>2013-05-26T07:56:12Z</time>
      </trkpt>
      <trkpt lat="44.55837" lon="0.88373">
        <ele>115.5</ele>
        <time>2013-05-26T07:56:13Z</time>
      </trkpt>
      <trkpt lat="44.55839" lon="0.88371">
        <ele>115.5</ele>
        <time>2013-05-26T07:56:14Z</time>
      </trkpt>
      <trkpt lat="44.55842" lon="0.8837">
        <ele>115.5</ele>
        <time>2013-05-26T07:56:15Z</time>
      </trkpt>
      <trkpt lat="44.55844" lon="0.8837">
        <ele>115.5</ele>
        <time>2013-05-26T07:56:16Z</time>
      </trkpt>
      <trkpt lat="44.55846" lon="0.88369">
        <ele>115.5</ele>
        <time>2013-05-26T07:56:17Z</time>
      </trkpt>
      <trkpt lat="44.55848" lon="0.88368">
        <ele>115.5</ele>
        <time>2013-05-26T07:56:18Z</time>
      </trkpt>
      <trkpt lat="44.5585" lon="0.88367">
        <ele>115.5</ele>
        <time>2013-05-26T07:56:19Z</time>
      </trkpt>
      <trkpt lat="44.55852" lon="0.88367">
        <ele>115.5</ele>
        <time>2013-05-26T07:56:20Z</time>
      </trkpt>
      <trkpt lat="44.55855" lon="0.88367">
        <ele>115.5</ele>
        <time>2013-05-26T07:56:21Z</time>
      </trkpt>
      <trkpt lat="44.55897" lon="0.88387">
        <ele>117.9</ele>
        <time>2013-05-26T07:56:35Z</time>
      </trkpt>
      <trkpt lat="44.55944" lon="0.8845">
        <ele>118.86</ele>
        <time>2013-05-26T07:56:52Z</time>
      </trkpt>
      <trkpt lat="44.55983" lon="0.88519">
        <ele>117.42</ele>
        <time>2013-05-26T07:57:08Z</time>
      </trkpt>
      <trkpt lat="44.56021" lon="0.88597">
        <ele>117.42</ele>
        <time>2013-05-26T07:57:26Z</time>
      </trkpt>
      <trkpt lat="44.56041" lon="0.88641">
        <ele>118.38</ele>
        <time>2013-05-26T07:57:40Z</time>
      </trkpt>
      <trkpt lat="44.56047" lon="0.8867">
        <ele>118.38</ele>
        <time>2013-05-26T07:57:49Z</time>
      </trkpt>
      <trkpt lat="44.56045" lon="0.88673">
        <ele>118.86</ele>
        <time>2013-05-26T07:57:50Z</time>
      </trkpt>
      <trkpt lat="44.56043" lon="0.88675">
        <ele>118.86</ele>
        <time>2013-05-26T07:57:51Z</time>
      </trkpt>
      <trkpt lat="44.56042" lon="0.88678">
        <ele>118.86</ele>
        <time>2013-05-26T07:57:52Z</time>
      </trkpt>
      <trkpt lat="44.56041" lon="0.88682">
        <ele>118.86</ele>
        <time>2013-05-26T07:57:53Z</time>
      </trkpt>
      <trkpt lat="44.56041" lon="0.88686">
        <ele>118.86</ele>
        <time>2013-05-26T07:57:54Z</time>
      </trkpt>
      <trkpt lat="44.56041" lon="0.88691">
        <ele>118.86</ele>
        <time>2013-05-26T07:57:55Z</time>
      </trkpt>
      <trkpt lat="44.56042" lon="0.88695">
        <ele>118.86</ele>
        <time>2013-05-26T07:57:56Z</time>
      </trkpt>
      <trkpt lat="44.56043" lon="0.88699">
        <ele>118.86</ele>
        <time>2013-05-26T07:57:57Z</time>
      </trkpt>
      <trkpt lat="44.56043" lon="0.88703">
        <ele>118.86</ele>
        <time>2013-05-26T07:57:58Z</time>
      </trkpt>
      <trkpt lat="44.56042" lon="0.88707">
        <ele>118.38</ele>
        <time>2013-05-26T07:57:59Z</time>
      </trkpt>
      <trkpt lat="44.5604" lon="0.88711">
        <ele>118.38</ele>
        <time>2013-05-26T07:58:00Z</time>
      </trkpt>
      <trkpt lat="44.5602" lon="0.8875">
        <ele>120.78</ele>
        <time>2013-05-26T07:58:11Z</time>
      </trkpt>
      <trkpt lat="44.56003" lon="0.88784">
        <ele>123.19</ele>
        <time>2013-05-26T07:58:23Z</time>
      </trkpt>
      <trkpt lat="44.55987" lon="0.88817">
        <ele>124.63</ele>
        <time>2013-05-26T07:58:36Z</time>
      </trkpt>
      <trkpt lat="44.55996" lon="0.88849">
        <ele>127.03</ele>
        <time>2013-05-26T07:58:48Z</time>
      </trkpt>
      <trkpt lat="44.56014" lon="0.88879">
        <ele>135.2</ele>
        <time>2013-05-26T07:59:03Z</time>
      </trkpt>
      <trkpt lat="44.56027" lon="0.88893">
        <ele>143.85</ele>
        <time>2013-05-26T07:59:14Z</time>
      </trkpt>
      <trkpt lat="44.56029" lon="0.88895">
        <ele>144.34</ele>
        <time>2013-05-26T07:59:15Z</time>
      </trkpt>
      <trkpt lat="44.5603" lon="0.88896">
        <ele>145.3</ele>
        <time>2013-05-26T07:59:16Z</time>
      </trkpt>
      <trkpt lat="44.56032" lon="0.88897">
        <ele>145.78</ele>
        <time>2013-05-26T07:59:17Z</time>
      </trkpt>
      <trkpt lat="44.56033" lon="0.88899">
        <ele>146.74</ele>
        <time>2013-05-26T07:59:18Z</time>
      </trkpt>
      <trkpt lat="44.56035" lon="0.889">
        <ele>147.22</ele>
        <time>2013-05-26T07:59:19Z</time>
      </trkpt>
      <trkpt lat="44.56037" lon="0.88901">
        <ele>148.18</ele>
        <time>2013-05-26T07:59:20Z</time>
      </trkpt>
      <trkpt lat="44.56039" lon="0.88903">
        <ele>148.66</ele>
        <time>2013-05-26T07:59:21Z</time>
      </trkpt>
      <trkpt lat="44.5604" lon="0.88904">
        <ele>149.62</ele>
        <time>2013-05-26T07:59:22Z</time>
      </trkpt>
      <trkpt lat="44.56066" lon="0.88925">
        <ele>155.87</ele>
        <time>2013-05-26T07:59:36Z</time>
      </trkpt>
      <trkpt lat="44.56067" lon="0.88925">
        <ele>156.35</ele>
        <time>2013-05-26T07:59:37Z</time>
      </trkpt>
      <trkpt lat="44.56068" lon="0.88924">
        <ele>156.35</ele>
        <time>2013-05-26T07:59:38Z</time>
      </trkpt>
      <trkpt lat="44.56069" lon="0.88923">
        <ele>156.83</ele>
        <time>2013-05-26T07:59:39Z</time>
      </trkpt>
      <trkpt lat="44.56099" lon="0.88916">
        <ele>152.51</ele>
        <time>2013-05-26T07:59:50Z</time>
      </trkpt>
      <trkpt lat="44.56113" lon="0.88917">
        <ele>151.06</ele>
        <time>2013-05-26T07:59:56Z</time>
      </trkpt>
      <trkpt lat="44.5613" lon="0.88921">
        <ele>146.74</ele>
        <time>2013-05-26T08:00:05Z</time>
      </trkpt>
      <trkpt lat="44.56148" lon="0.88932">
        <ele>146.74</ele>
        <time>2013-05-26T08:00:15Z</time>
      </trkpt>
      <trkpt lat="44.56159" lon="0.88932">
        <ele>149.14</ele>
        <time>2013-05-26T08:00:28Z</time>
      </trkpt>
      <trkpt lat="44.56162" lon="0.88932">
        <ele>152.51</ele>
        <time>2013-05-26T08:00:44Z</time>
      </trkpt>
      <trkpt lat="44.56165" lon="0.88929">
        <ele>154.91</ele>
        <time>2013-05-26T08:01:09Z</time>
      </trkpt>
      <trkpt lat="44.56165" lon="0.88926">
        <ele>153.47</ele>
        <time>2013-05-26T08:01:22Z</time>
      </trkpt>
      <trkpt lat="44.56164" lon="0.88926">
        <ele>149.14</ele>
        <time>2013-05-26T08:01:45Z</time>
      </trkpt>
      <trkpt lat="44.56164" lon="0.88923">
        <ele>151.06</ele>
        <time>2013-05-26T08:02:03Z</time>
      </trkpt>
      <trkpt lat="44.56164" lon="0.88921">
        <ele>151.54</ele>
        <time>2013-05-26T08:02:15Z</time>
      </trkpt>
      <trkpt lat="44.56164" lon="0.88896">
        <ele>152.03</ele>
        <time>2013-05-26T08:02:23Z</time>
      </trkpt>
      <trkpt lat="44.56175" lon="0.88884">
        <ele>149.14</ele>
        <time>2013-05-26T08:02:32Z</time>
      </trkpt>
      <trkpt lat="44.56186" lon="0.88881">
        <ele>150.58</ele>
        <time>2013-05-26T08:02:39Z</time>
      </trkpt>
      <trkpt lat="44.56192" lon="0.88879">
        <ele>151.54</ele>
        <time>2013-05-26T08:02:43Z</time>
      </trkpt>
      <trkpt lat="44.56215" lon="0.88878">
        <ele>154.43</ele>
        <time>2013-05-26T08:02:57Z</time>
      </trkpt>
      <trkpt lat="44.56221" lon="0.88878">
        <ele>158.27</ele>
        <time>2013-05-26T08:03:08Z</time>
      </trkpt>
      <trkpt lat="44.56224" lon="0.88875">
        <ele>159.24</ele>
        <time>2013-05-26T08:03:22Z</time>
      </trkpt>
      <trkpt lat="44.56225" lon="0.88874">
        <ele>160.2</ele>
        <time>2013-05-26T08:03:36Z</time>
      </trkpt>
      <trkpt lat="44.56232" lon="0.88873">
        <ele>161.64</ele>
        <time>2013-05-26T08:03:51Z</time>
      </trkpt>
      <trkpt lat="44.56236" lon="0.88875">
        <ele>164.04</ele>
        <time>2013-05-26T08:04:05Z</time>
      </trkpt>
      <trkpt lat="44.56237" lon="0.8888">
        <ele>164.52</ele>
        <time>2013-05-26T08:04:14Z</time>
      </trkpt>
      <trkpt lat="44.56236" lon="0.88883">
        <ele>165.48</ele>
        <time>2013-05-26T08:04:16Z</time>
      </trkpt>
      <trkpt lat="44.56232" lon="0.88904">
        <ele>171.25</ele>
        <time>2013-05-26T08:04:31Z</time>
      </trkpt>
      <trkpt lat="44.56231" lon="0.88919">
        <ele>175.1</ele>
        <time>2013-05-26T08:04:42Z</time>
      </trkpt>
      <trkpt lat="44.56232" lon="0.88932">
        <ele>177.02</ele>
        <time>2013-05-26T08:04:49Z</time>
      </trkpt>
      <trkpt lat="44.56236" lon="0.88953">
        <ele>179.9</ele>
        <time>2013-05-26T08:05:00Z</time>
      </trkpt>
      <trkpt lat="44.56236" lon="0.88955">
        <ele>179.9</ele>
        <time>2013-05-26T08:05:01Z</time>
      </trkpt>
      <trkpt lat="44.56238" lon="0.8896">
        <ele>180.38</ele>
        <time>2013-05-26T08:05:03Z</time>
      </trkpt>
      <trkpt lat="44.56241" lon="0.88964">
        <ele>180.87</ele>
        <time>2013-05-26T08:05:07Z</time>
      </trkpt>
      <trkpt lat="44.56253" lon="0.88961">
        <ele>182.31</ele>
        <time>2013-05-26T08:05:16Z</time>
      </trkpt>
      <trkpt lat="44.56258" lon="0.88958">
        <ele>182.79</ele>
        <time>2013-05-26T08:05:20Z</time>
      </trkpt>
      <trkpt lat="44.56277" lon="0.88953">
        <ele>184.23</ele>
        <time>2013-05-26T08:05:32Z</time>
      </trkpt>
      <trkpt lat="44.56299" lon="0.88944">
        <ele>184.23</ele>
        <time>2013-05-26T08:05:47Z</time>
      </trkpt>
      <trkpt lat="44.56301" lon="0.88943">
        <ele>183.27</ele>
        <time>2013-05-26T08:06:01Z</time>
      </trkpt>
      <trkpt lat="44.56301" lon="0.88943">
        <ele>183.75</ele>
        <time>2013-05-26T08:06:19Z</time>
      </trkpt>
      <trkpt lat="44.563" lon="0.88944">
        <ele>184.23</ele>
        <time>2013-05-26T08:06:35Z</time>
      </trkpt>
      <trkpt lat="44.563" lon="0.88945">
        <ele>184.71</ele>
        <time>2013-05-26T08:06:40Z</time>
      </trkpt>
      <trkpt lat="44.56308" lon="0.88942">
        <ele>184.71</ele>
        <time>2013-05-26T08:06:45Z</time>
      </trkpt>
      <trkpt lat="44.56342" lon="0.88928">
        <ele>184.71</ele>
        <time>2013-05-26T08:07:00Z</time>
      </trkpt>
      <trkpt lat="44.56371" lon="0.88926">
        <ele>184.71</ele>
        <time>2013-05-26T08:07:13Z</time>
      </trkpt>
      <trkpt lat="44.56413" lon="0.88945">
        <ele>186.15</ele>
        <time>2013-05-26T08:07:28Z</time>
      </trkpt>
      <trkpt lat="44.56424" lon="0.88959">
        <ele>188.56</ele>
        <time>2013-05-26T08:07:34Z</time>
      </trkpt>
      <trkpt lat="44.56423" lon="0.88973">
        <ele>189.52</ele>
        <time>2013-05-26T08:07:38Z</time>
      </trkpt>
      <trkpt lat="44.56424" lon="0.88976">
        <ele>189.52</ele>
        <time>2013-05-26T08:07:39Z</time>
      </trkpt>
      <trkpt lat="44.56426" lon="0.88979">
        <ele>189.52</ele>
        <time>2013-05-26T08:07:40Z</time>
      </trkpt>
      <trkpt lat="44.56428" lon="0.88981">
        <ele>189.52</ele>
        <time>2013-05-26T08:07:41Z</time>
      </trkpt>
      <trkpt lat="44.5643" lon="0.88984">
        <ele>189.52</ele>
        <time>2013-05-26T08:07:42Z</time>
      </trkpt>
      <trkpt lat="44.56433" lon="0.88986">
        <ele>189.52</ele>
        <time>2013-05-26T08:07:43Z</time>
      </trkpt>
      <trkpt lat="44.56456" lon="0.89026">
        <ele>189.04</ele>
        <time>2013-05-26T08:07:55Z</time>
      </trkpt>
      <trkpt lat="44.56488" lon="0.8906">
        <ele>189.52</ele>
        <time>2013-05-26T08:08:07Z</time>
      </trkpt>
      <trkpt lat="44.56497" lon="0.89076">
        <ele>188.56</ele>
        <time>2013-05-26T08:08:13Z</time>
      </trkpt>
      <trkpt lat="44.56497" lon="0.8908">
        <ele>188.56</ele>
        <time>2013-05-26T08:08:14Z</time>
      </trkpt>
      <trkpt lat="44.56496" lon="0.89084">
        <ele>188.08</ele>
        <time>2013-05-26T08:08:15Z</time>
      </trkpt>
      <trkpt lat="44.56494" lon="0.89088">
        <ele>187.59</ele>
        <time>2013-05-26T08:08:16Z</time>
      </trkpt>
      <trkpt lat="44.56493" lon="0.89091">
        <ele>187.59</ele>
        <time>2013-05-26T08:08:17Z</time>
      </trkpt>
      <trkpt lat="44.56484" lon="0.89104">
        <ele>186.15</ele>
        <time>2013-05-26T08:08:21Z</time>
      </trkpt>
      <trkpt lat="44.56481" lon="0.89106">
        <ele>185.67</ele>
        <time>2013-05-26T08:08:22Z</time>
      </trkpt>
      <trkpt lat="44.5646" lon="0.89118">
        <ele>182.79</ele>
        <time>2013-05-26T08:08:27Z</time>
      </trkpt>
      <trkpt lat="44.56455" lon="0.89119">
        <ele>181.83</ele>
        <time>2013-05-26T08:08:28Z</time>
      </trkpt>
      <trkpt lat="44.56449" lon="0.89118">
        <ele>181.35</ele>
        <time>2013-05-26T08:08:29Z</time>
      </trkpt>
      <trkpt lat="44.56443" lon="0.89116">
        <ele>180.38</ele>
        <time>2013-05-26T08:08:30Z</time>
      </trkpt>
      <trkpt lat="44.56438" lon="0.89112">
        <ele>179.9</ele>
        <time>2013-05-26T08:08:31Z</time>
      </trkpt>
      <trkpt lat="44.56433" lon="0.89107">
        <ele>178.94</ele>
        <time>2013-05-26T08:08:32Z</time>
      </trkpt>
      <trkpt lat="44.56416" lon="0.89088">
        <ele>175.1</ele>
        <time>2013-05-26T08:08:39Z</time>
      </trkpt>
      <trkpt lat="44.56414" lon="0.89093">
        <ele>174.14</ele>
        <time>2013-05-26T08:08:42Z</time>
      </trkpt>
      <trkpt lat="44.56414" lon="0.89096">
        <ele>173.66</ele>
        <time>2013-05-26T08:08:43Z</time>
      </trkpt>
      <trkpt lat="44.56415" lon="0.891">
        <ele>173.17</ele>
        <time>2013-05-26T08:08:44Z</time>
      </trkpt>
      <trkpt lat="44.56434" lon="0.89137">
        <ele>169.81</ele>
        <time>2013-05-26T08:08:55Z</time>
      </trkpt>
      <trkpt lat="44.56447" lon="0.89161">
        <ele>168.85</ele>
        <time>2013-05-26T08:09:06Z</time>
      </trkpt>
      <trkpt lat="44.56441" lon="0.89197">
        <ele>165.48</ele>
        <time>2013-05-26T08:09:18Z</time>
      </trkpt>
      <trkpt lat="44.56441" lon="0.89228">
        <ele>162.12</ele>
        <time>2013-05-26T08:09:27Z</time>
      </trkpt>
      <trkpt lat="44.56434" lon="0.89246">
        <ele>161.64</ele>
        <time>2013-05-26T08:09:33Z</time>
      </trkpt>
      <trkpt lat="44.56433" lon="0.89289">
        <ele>160.2</ele>
        <time>2013-05-26T08:09:43Z</time>
      </trkpt>
      <trkpt lat="44.56436" lon="0.89347">
        <ele>159.24</ele>
        <time>2013-05-26T08:09:55Z</time>
      </trkpt>
      <trkpt lat="44.56437" lon="0.89388">
        <ele>157.79</ele>
        <time>2013-05-26T08:10:05Z</time>
      </trkpt>
      <trkpt lat="44.56436" lon="0.8941">
        <ele>159.24</ele>
        <time>2013-05-26T08:10:11Z</time>
      </trkpt>
      <trkpt lat="44.56439" lon="0.89419">
        <ele>165</ele>
        <time>2013-05-26T08:10:23Z</time>
      </trkpt>
      <trkpt lat="44.56438" lon="0.89419">
        <ele>169.81</ele>
        <time>2013-05-26T08:10:43Z</time>
      </trkpt>
      <trkpt lat="44.56439" lon="0.8942">
        <ele>169.81</ele>
        <time>2013-05-26T08:11:07Z</time>
      </trkpt>
      <trkpt lat="44.5644" lon="0.8942">
        <ele>173.66</ele>
        <time>2013-05-26T08:11:37Z</time>
      </trkpt>
      <trkpt lat="44.56439" lon="0.89419">
        <ele>174.14</ele>
        <time>2013-05-26T08:12:02Z</time>
      </trkpt>
      <trkpt lat="44.56442" lon="0.89421">
        <ele>173.66</ele>
        <time>2013-05-26T08:12:22Z</time>
      </trkpt>
      <trkpt lat="44.56465" lon="0.89414">
        <ele>173.66</ele>
        <time>2013-05-26T08:12:34Z</time>
      </trkpt>
      <trkpt lat="44.5649" lon="0.89394">
        <ele>174.14</ele>
        <time>2013-05-26T08:12:47Z</time>
      </trkpt>
      <trkpt lat="44.56524" lon="0.89386">
        <ele>173.66</ele>
        <time>2013-05-26T08:12:59Z</time>
      </trkpt>
      <trkpt lat="44.56566" lon="0.89397">
        <ele>171.25</ele>
        <time>2013-05-26T08:13:11Z</time>
      </trkpt>
      <trkpt lat="44.56602" lon="0.89385">
        <ele>171.73</ele>
        <time>2013-05-26T08:13:21Z</time>
      </trkpt>
      <trkpt lat="44.56642" lon="0.89369">
        <ele>173.66</ele>
        <time>2013-05-26T08:13:34Z</time>
      </trkpt>
      <trkpt lat="44.56679" lon="0.89363">
        <ele>174.14</ele>
        <time>2013-05-26T08:13:45Z</time>
      </trkpt>
      <trkpt lat="44.56723" lon="0.89343">
        <ele>178.46</ele>
        <time>2013-05-26T08:13:57Z</time>
      </trkpt>
      <trkpt lat="44.56755" lon="0.89307">
        <ele>179.9</ele>
        <time>2013-05-26T08:14:08Z</time>
      </trkpt>
      <trkpt lat="44.568" lon="0.89294">
        <ele>178.46</ele>
        <time>2013-05-26T08:14:20Z</time>
      </trkpt>
      <trkpt lat="44.56811" lon="0.89294">
        <ele>177.98</ele>
        <time>2013-05-26T08:14:23Z</time>
      </trkpt>
      <trkpt lat="44.56857" lon="0.89292">
        <ele>176.54</ele>
        <time>2013-05-26T08:14:34Z</time>
      </trkpt>
      <trkpt lat="44.56889" lon="0.8927">
        <ele>177.5</ele>
        <time>2013-05-26T08:14:45Z</time>
      </trkpt>
      <trkpt lat="44.56944" lon="0.89238">
        <ele>174.14</ele>
        <time>2013-05-26T08:14:55Z</time>
      </trkpt>
      <trkpt lat="44.56992" lon="0.892">
        <ele>169.33</ele>
        <time>2013-05-26T08:15:06Z</time>
      </trkpt>
      <trkpt lat="44.56995" lon="0.89195">
        <ele>168.85</ele>
        <time>2013-05-26T08:15:07Z</time>
      </trkpt>
      <trkpt lat="44.56999" lon="0.8919">
        <ele>168.37</ele>
        <time>2013-05-26T08:15:08Z</time>
      </trkpt>
      <trkpt lat="44.57001" lon="0.89184">
        <ele>167.89</ele>
        <time>2013-05-26T08:15:09Z</time>
      </trkpt>
      <trkpt lat="44.57003" lon="0.89177">
        <ele>167.89</ele>
        <time>2013-05-26T08:15:10Z</time>
      </trkpt>
      <trkpt lat="44.57003" lon="0.8917">
        <ele>167.41</ele>
        <time>2013-05-26T08:15:11Z</time>
      </trkpt>
      <trkpt lat="44.57001" lon="0.89163">
        <ele>166.93</ele>
        <time>2013-05-26T08:15:12Z</time>
      </trkpt>
      <trkpt lat="44.56999" lon="0.89157">
        <ele>166.93</ele>
        <time>2013-05-26T08:15:13Z</time>
      </trkpt>
      <trkpt lat="44.56996" lon="0.89152">
        <ele>166.45</ele>
        <time>2013-05-26T08:15:14Z</time>
      </trkpt>
      <trkpt lat="44.56978" lon="0.89121">
        <ele>165.48</ele>
        <time>2013-05-26T08:15:20Z</time>
      </trkpt>
      <trkpt lat="44.56976" lon="0.89114">
        <ele>165.48</ele>
        <time>2013-05-26T08:15:21Z</time>
      </trkpt>
      <trkpt lat="44.56968" lon="0.89092">
        <ele>165.48</ele>
        <time>2013-05-26T08:15:25Z</time>
      </trkpt>
      <trkpt lat="44.56969" lon="0.89088">
        <ele>165.48</ele>
        <time>2013-05-26T08:15:26Z</time>
      </trkpt>
      <trkpt lat="44.56978" lon="0.89078">
        <ele>165.48</ele>
        <time>2013-05-26T08:15:30Z</time>
      </trkpt>
      <trkpt lat="44.57016" lon="0.89045">
        <ele>166.93</ele>
        <time>2013-05-26T08:15:45Z</time>
      </trkpt>
      <trkpt lat="44.5704" lon="0.89012">
        <ele>166.45</ele>
        <time>2013-05-26T08:15:56Z</time>
      </trkpt>
      <trkpt lat="44.57063" lon="0.88976">
        <ele>169.33</ele>
        <time>2013-05-26T08:16:09Z</time>
      </trkpt>
      <trkpt lat="44.57084" lon="0.88936">
        <ele>172.21</ele>
        <time>2013-05-26T08:16:23Z</time>
      </trkpt>
      <trkpt lat="44.57106" lon="0.88896">
        <ele>174.14</ele>
        <time>2013-05-26T08:16:36Z</time>
      </trkpt>
      <trkpt lat="44.57126" lon="0.88864">
        <ele>178.94</ele>
        <time>2013-05-26T08:16:49Z</time>
      </trkpt>
      <trkpt lat="44.57144" lon="0.88841">
        <ele>183.27</ele>
        <time>2013-05-26T08:17:02Z</time>
      </trkpt>
      <trkpt lat="44.57164" lon="0.88813">
        <ele>183.75</ele>
        <time>2013-05-26T08:17:15Z</time>
      </trkpt>
      <trkpt lat="44.57183" lon="0.88793">
        <ele>183.27</ele>
        <time>2013-05-26T08:17:30Z</time>
      </trkpt>
      <trkpt lat="44.57183" lon="0.88791">
        <ele>181.83</ele>
        <time>2013-05-26T08:17:51Z</time>
      </trkpt>
      <trkpt lat="44.57184" lon="0.88787">
        <ele>181.35</ele>
        <time>2013-05-26T08:18:03Z</time>
      </trkpt>
      <trkpt lat="44.57184" lon="0.88786">
        <ele>181.35</ele>
        <time>2013-05-26T08:18:14Z</time>
      </trkpt>
      <trkpt lat="44.57185" lon="0.88786">
        <ele>181.35</ele>
        <time>2013-05-26T08:18:31Z</time>
      </trkpt>
      <trkpt lat="44.57186" lon="0.88787">
        <ele>180.87</ele>
        <time>2013-05-26T08:18:50Z</time>
      </trkpt>
      <trkpt lat="44.57186" lon="0.88787">
        <ele>179.9</ele>
        <time>2013-05-26T08:19:12Z</time>
      </trkpt>
      <trkpt lat="44.57188" lon="0.88787">
        <ele>178.94</ele>
        <time>2013-05-26T08:19:26Z</time>
      </trkpt>
      <trkpt lat="44.57192" lon="0.88785">
        <ele>178.94</ele>
        <time>2013-05-26T08:19:40Z</time>
      </trkpt>
      <trkpt lat="44.57192" lon="0.88786">
        <ele>179.42</ele>
        <time>2013-05-26T08:19:57Z</time>
      </trkpt>
      <trkpt lat="44.57193" lon="0.88785">
        <ele>179.9</ele>
        <time>2013-05-26T08:20:15Z</time>
      </trkpt>
      <trkpt lat="44.57194" lon="0.88784">
        <ele>179.42</ele>
        <time>2013-05-26T08:20:33Z</time>
      </trkpt>
      <trkpt lat="44.57195" lon="0.88782">
        <ele>179.42</ele>
        <time>2013-05-26T08:20:35Z</time>
      </trkpt>
      <trkpt lat="44.57196" lon="0.8878">
        <ele>179.42</ele>
        <time>2013-05-26T08:20:36Z</time>
      </trkpt>
      <trkpt lat="44.5722" lon="0.88737">
        <ele>181.83</ele>
        <time>2013-05-26T08:20:51Z</time>
      </trkpt>
      <trkpt lat="44.57235" lon="0.88697">
        <ele>182.31</ele>
        <time>2013-05-26T08:21:02Z</time>
      </trkpt>
      <trkpt lat="44.57231" lon="0.8869">
        <ele>182.79</ele>
        <time>2013-05-26T08:21:05Z</time>
      </trkpt>
      <trkpt lat="44.57229" lon="0.88688">
        <ele>183.27</ele>
        <time>2013-05-26T08:21:06Z</time>
      </trkpt>
      <trkpt lat="44.57225" lon="0.88682">
        <ele>182.79</ele>
        <time>2013-05-26T08:21:09Z</time>
      </trkpt>
      <trkpt lat="44.57217" lon="0.88641">
        <ele>180.87</ele>
        <time>2013-05-26T08:21:17Z</time>
      </trkpt>
      <trkpt lat="44.57211" lon="0.88604">
        <ele>178.94</ele>
        <time>2013-05-26T08:21:28Z</time>
      </trkpt>
      <trkpt lat="44.57211" lon="0.88597">
        <ele>178.46</ele>
        <time>2013-05-26T08:21:30Z</time>
      </trkpt>
      <trkpt lat="44.57219" lon="0.88559">
        <ele>179.9</ele>
        <time>2013-05-26T08:21:44Z</time>
      </trkpt>
      <trkpt lat="44.57221" lon="0.88556">
        <ele>179.9</ele>
        <time>2013-05-26T08:21:46Z</time>
      </trkpt>
      <trkpt lat="44.57223" lon="0.88548">
        <ele>180.38</ele>
        <time>2013-05-26T08:21:51Z</time>
      </trkpt>
      <trkpt lat="44.57226" lon="0.88543">
        <ele>179.9</ele>
        <time>2013-05-26T08:22:07Z</time>
      </trkpt>
      <trkpt lat="44.57226" lon="0.88542">
        <ele>180.38</ele>
        <time>2013-05-26T08:22:28Z</time>
      </trkpt>
      <trkpt lat="44.5723" lon="0.88535">
        <ele>181.35</ele>
        <time>2013-05-26T08:22:32Z</time>
      </trkpt>
      <trkpt lat="44.57233" lon="0.8853">
        <ele>181.83</ele>
        <time>2013-05-26T08:22:34Z</time>
      </trkpt>
      <trkpt lat="44.57233" lon="0.88513">
        <ele>182.31</ele>
        <time>2013-05-26T08:22:39Z</time>
      </trkpt>
      <trkpt lat="44.57236" lon="0.88488">
        <ele>180.38</ele>
        <time>2013-05-26T08:22:45Z</time>
      </trkpt>
      <trkpt lat="44.57231" lon="0.88432">
        <ele>177.5</ele>
        <time>2013-05-26T08:22:57Z</time>
      </trkpt>
      <trkpt lat="44.57215" lon="0.88383">
        <ele>177.98</ele>
        <time>2013-05-26T08:23:10Z</time>
      </trkpt>
      <trkpt lat="44.57199" lon="0.88346">
        <ele>178.46</ele>
        <time>2013-05-26T08:23:21Z</time>
      </trkpt>
      <trkpt lat="44.57187" lon="0.88304">
        <ele>177.5</ele>
        <time>2013-05-26T08:23:31Z</time>
      </trkpt>
      <trkpt lat="44.5718" lon="0.88294">
        <ele>176.06</ele>
        <time>2013-05-26T08:23:35Z</time>
      </trkpt>
      <trkpt lat="44.57178" lon="0.88288">
        <ele>175.58</ele>
        <time>2013-05-26T08:23:37Z</time>
      </trkpt>
      <trkpt lat="44.57153" lon="0.88243">
        <ele>173.66</ele>
        <time>2013-05-26T08:23:46Z</time>
      </trkpt>
      <trkpt lat="44.57152" lon="0.88235">
        <ele>173.66</ele>
        <time>2013-05-26T08:23:47Z</time>
      </trkpt>
      <trkpt lat="44.57144" lon="0.88181">
        <ele>172.69</ele>
        <time>2013-05-26T08:23:54Z</time>
      </trkpt>
      <trkpt lat="44.5714" lon="0.88141">
        <ele>170.77</ele>
        <time>2013-05-26T08:23:59Z</time>
      </trkpt>
      <trkpt lat="44.57138" lon="0.88117">
        <ele>168.37</ele>
        <time>2013-05-26T08:24:03Z</time>
      </trkpt>
      <trkpt lat="44.5714" lon="0.88082">
        <ele>159.24</ele>
        <time>2013-05-26T08:24:13Z</time>
      </trkpt>
      <trkpt lat="44.57144" lon="0.88079">
        <ele>153.47</ele>
        <time>2013-05-26T08:24:28Z</time>
      </trkpt>
      <trkpt lat="44.57145" lon="0.88075">
        <ele>152.03</ele>
        <time>2013-05-26T08:24:49Z</time>
      </trkpt>
      <trkpt lat="44.57147" lon="0.88074">
        <ele>152.03</ele>
        <time>2013-05-26T08:25:03Z</time>
      </trkpt>
      <trkpt lat="44.5715" lon="0.88075">
        <ele>152.03</ele>
        <time>2013-05-26T08:25:07Z</time>
      </trkpt>
      <trkpt lat="44.57165" lon="0.88085">
        <ele>152.03</ele>
        <time>2013-05-26T08:25:23Z</time>
      </trkpt>
      <trkpt lat="44.57169" lon="0.88085">
        <ele>149.14</ele>
        <time>2013-05-26T08:25:44Z</time>
      </trkpt>
      <trkpt lat="44.57174" lon="0.88091">
        <ele>152.03</ele>
        <time>2013-05-26T08:25:57Z</time>
      </trkpt>
      <trkpt lat="44.57175" lon="0.88094">
        <ele>158.27</ele>
        <time>2013-05-26T08:26:15Z</time>
      </trkpt>
      <trkpt lat="44.57181" lon="0.88098">
        <ele>160.2</ele>
        <time>2013-05-26T08:26:30Z</time>
      </trkpt>
      <trkpt lat="44.57187" lon="0.88105">
        <ele>162.12</ele>
        <time>2013-05-26T08:26:44Z</time>
      </trkpt>
      <trkpt lat="44.5719" lon="0.88108">
        <ele>162.6</ele>
        <time>2013-05-26T08:26:47Z</time>
      </trkpt>
      <trkpt lat="44.57198" lon="0.88116">
        <ele>165</ele>
        <time>2013-05-26T08:26:54Z</time>
      </trkpt>
      <trkpt lat="44.57203" lon="0.88117">
        <ele>166.45</ele>
        <time>2013-05-26T08:26:57Z</time>
      </trkpt>
      <trkpt lat="44.57218" lon="0.8812">
        <ele>167.89</ele>
        <time>2013-05-26T08:27:05Z</time>
      </trkpt>
      <trkpt lat="44.57248" lon="0.88134">
        <ele>169.81</ele>
        <time>2013-05-26T08:27:21Z</time>
      </trkpt>
      <trkpt lat="44.57261" lon="0.88148">
        <ele>171.73</ele>
        <time>2013-05-26T08:27:30Z</time>
      </trkpt>
      <trkpt lat="44.57281" lon="0.88177">
        <ele>176.54</ele>
        <time>2013-05-26T08:27:45Z</time>
      </trkpt>
      <trkpt lat="44.57298" lon="0.88204">
        <ele>176.54</ele>
        <time>2013-05-26T08:27:58Z</time>
      </trkpt>
      <trkpt lat="44.57315" lon="0.88211">
        <ele>174.14</ele>
        <time>2013-05-26T08:28:07Z</time>
      </trkpt>
      <trkpt lat="44.57325" lon="0.8822">
        <ele>172.69</ele>
        <time>2013-05-26T08:28:13Z</time>
      </trkpt>
      <trkpt lat="44.5733" lon="0.88223">
        <ele>172.21</ele>
        <time>2013-05-26T08:28:17Z</time>
      </trkpt>
      <trkpt lat="44.57355" lon="0.88232">
        <ele>168.37</ele>
        <time>2013-05-26T08:28:29Z</time>
      </trkpt>
      <trkpt lat="44.57363" lon="0.88231">
        <ele>168.37</ele>
        <time>2013-05-26T08:28:34Z</time>
      </trkpt>
      <trkpt lat="44.57375" lon="0.88237">
        <ele>169.81</ele>
        <time>2013-05-26T08:28:45Z</time>
      </trkpt>
      <trkpt lat="44.57377" lon="0.88234">
        <ele>171.25</ele>
        <time>2013-05-26T08:29:00Z</time>
      </trkpt>
      <trkpt lat="44.57379" lon="0.88236">
        <ele>173.66</ele>
        <time>2013-05-26T08:29:22Z</time>
      </trkpt>
      <trkpt lat="44.57379" lon="0.88238">
        <ele>175.1</ele>
        <time>2013-05-26T08:29:36Z</time>
      </trkpt>
      <trkpt lat="44.57385" lon="0.88244">
        <ele>177.02</ele>
        <time>2013-05-26T08:29:48Z</time>
      </trkpt>
      <trkpt lat="44.57392" lon="0.8825">
        <ele>179.9</ele>
        <time>2013-05-26T08:30:01Z</time>
      </trkpt>
      <trkpt lat="44.57398" lon="0.88256">
        <ele>180.87</ele>
        <time>2013-05-26T08:30:15Z</time>
      </trkpt>
      <trkpt lat="44.57398" lon="0.88259">
        <ele>183.27</ele>
        <time>2013-05-26T08:30:27Z</time>
      </trkpt>
      <trkpt lat="44.57403" lon="0.88262">
        <ele>182.31</ele>
        <time>2013-05-26T08:30:52Z</time>
      </trkpt>
      <trkpt lat="44.57412" lon="0.88266">
        <ele>183.75</ele>
        <time>2013-05-26T08:31:02Z</time>
      </trkpt>
      <trkpt lat="44.5742" lon="0.88268">
        <ele>186.15</ele>
        <time>2013-05-26T08:31:08Z</time>
      </trkpt>
      <trkpt lat="44.57426" lon="0.88272">
        <ele>186.63</ele>
        <time>2013-05-26T08:31:12Z</time>
      </trkpt>
      <trkpt lat="44.57445" lon="0.88279">
        <ele>184.23</ele>
        <time>2013-05-26T08:31:21Z</time>
      </trkpt>
      <trkpt lat="44.57477" lon="0.88282">
        <ele>176.06</ele>
        <time>2013-05-26T08:31:32Z</time>
      </trkpt>
      <trkpt lat="44.57486" lon="0.88284">
        <ele>174.62</ele>
        <time>2013-05-26T08:31:34Z</time>
      </trkpt>
      <trkpt lat="44.5751" lon="0.88288">
        <ele>171.73</ele>
        <time>2013-05-26T08:31:43Z</time>
      </trkpt>
      <trkpt lat="44.57527" lon="0.88291">
        <ele>173.17</ele>
        <time>2013-05-26T08:31:55Z</time>
      </trkpt>
      <trkpt lat="44.5756" lon="0.88293">
        <ele>172.21</ele>
        <time>2013-05-26T08:32:08Z</time>
      </trkpt>
      <trkpt lat="44.57588" lon="0.88284">
        <ele>170.77</ele>
        <time>2013-05-26T08:32:16Z</time>
      </trkpt>
      <trkpt lat="44.57598" lon="0.88266">
        <ele>169.81</ele>
        <time>2013-05-26T08:32:21Z</time>
      </trkpt>
      <trkpt lat="44.57601" lon="0.88233">
        <ele>167.89</ele>
        <time>2013-05-26T08:32:26Z</time>
      </trkpt>
      <trkpt lat="44.5761" lon="0.88205">
        <ele>165.96</ele>
        <time>2013-05-26T08:32:32Z</time>
      </trkpt>
      <trkpt lat="44.57611" lon="0.88193">
        <ele>165.96</ele>
        <time>2013-05-26T08:32:34Z</time>
      </trkpt>
      <trkpt lat="44.57604" lon="0.88157">
        <ele>163.08</ele>
        <time>2013-05-26T08:32:42Z</time>
      </trkpt>
      <trkpt lat="44.5761" lon="0.88123">
        <ele>159.72</ele>
        <time>2013-05-26T08:32:48Z</time>
      </trkpt>
      <trkpt lat="44.57616" lon="0.88084">
        <ele>154.43</ele>
        <time>2013-05-26T08:32:54Z</time>
      </trkpt>
      <trkpt lat="44.57626" lon="0.88036">
        <ele>148.18</ele>
        <time>2013-05-26T08:33:03Z</time>
      </trkpt>
      <trkpt lat="44.57628" lon="0.88019">
        <ele>146.26</ele>
        <time>2013-05-26T08:33:12Z</time>
      </trkpt>
      <trkpt lat="44.57628" lon="0.88006">
        <ele>145.78</ele>
        <time>2013-05-26T08:33:14Z</time>
      </trkpt>
      <trkpt lat="44.57624" lon="0.87983">
        <ele>144.34</ele>
        <time>2013-05-26T08:33:17Z</time>
      </trkpt>
      <trkpt lat="44.57606" lon="0.87928">
        <ele>140.97</ele>
        <time>2013-05-26T08:33:24Z</time>
      </trkpt>
      <trkpt lat="44.57597" lon="0.87894">
        <ele>134.72</ele>
        <time>2013-05-26T08:33:34Z</time>
      </trkpt>
      <trkpt lat="44.57596" lon="0.87892">
        <ele>130.4</ele>
        <time>2013-05-26T08:33:52Z</time>
      </trkpt>
      <trkpt lat="44.57596" lon="0.87892">
        <ele>129.92</ele>
        <time>2013-05-26T08:34:09Z</time>
      </trkpt>
      <trkpt lat="44.57597" lon="0.87891">
        <ele>128.47</ele>
        <time>2013-05-26T08:34:38Z</time>
      </trkpt>
      <trkpt lat="44.57596" lon="0.87891">
        <ele>130.88</ele>
        <time>2013-05-26T08:34:59Z</time>
      </trkpt>
      <trkpt lat="44.57596" lon="0.87889">
        <ele>130.88</ele>
        <time>2013-05-26T08:35:20Z</time>
      </trkpt>
      <trkpt lat="44.57596" lon="0.8789">
        <ele>128.95</ele>
        <time>2013-05-26T08:35:46Z</time>
      </trkpt>
      <trkpt lat="44.57596" lon="0.8789">
        <ele>128.95</ele>
        <time>2013-05-26T08:36:15Z</time>
      </trkpt>
      <trkpt lat="44.57596" lon="0.87891">
        <ele>129.43</ele>
        <time>2013-05-26T08:36:44Z</time>
      </trkpt>
      <trkpt lat="44.57597" lon="0.8789">
        <ele>129.92</ele>
        <time>2013-05-26T08:37:15Z</time>
      </trkpt>
      <trkpt lat="44.57599" lon="0.87892">
        <ele>129.43</ele>
        <time>2013-05-26T08:37:39Z</time>
      </trkpt>
      <trkpt lat="44.57595" lon="0.8789">
        <ele>129.92</ele>
        <time>2013-05-26T08:38:14Z</time>
      </trkpt>
      <trkpt lat="44.57596" lon="0.8789">
        <ele>128.95</ele>
        <time>2013-05-26T08:38:35Z</time>
      </trkpt>
      <trkpt lat="44.57597" lon="0.87891">
        <ele>127.99</ele>
        <time>2013-05-26T08:39:03Z</time>
      </trkpt>
      <trkpt lat="44.57597" lon="0.87892">
        <ele>126.07</ele>
        <time>2013-05-26T08:39:30Z</time>
      </trkpt>
      <trkpt lat="44.57599" lon="0.87893">
        <ele>124.63</ele>
        <time>2013-05-26T08:39:53Z</time>
      </trkpt>
      <trkpt lat="44.57598" lon="0.87891">
        <ele>126.55</ele>
        <time>2013-05-26T08:40:15Z</time>
      </trkpt>
      <trkpt lat="44.57598" lon="0.87891">
        <ele>127.03</ele>
        <time>2013-05-26T08:40:31Z</time>
      </trkpt>
      <trkpt lat="44.57598" lon="0.87891">
        <ele>127.99</ele>
        <time>2013-05-26T08:40:46Z</time>
      </trkpt>
      <trkpt lat="44.57598" lon="0.87893">
        <ele>128.47</ele>
        <time>2013-05-26T08:41:01Z</time>
      </trkpt>
      <trkpt lat="44.57598" lon="0.87892">
        <ele>128.95</ele>
        <time>2013-05-26T08:41:18Z</time>
      </trkpt>
      <trkpt lat="44.57596" lon="0.87889">
        <ele>129.43</ele>
        <time>2013-05-26T08:41:21Z</time>
      </trkpt>
      <trkpt lat="44.57595" lon="0.87887">
        <ele>129.43</ele>
        <time>2013-05-26T08:41:22Z</time>
      </trkpt>
      <trkpt lat="44.57594" lon="0.87884">
        <ele>129.92</ele>
        <time>2013-05-26T08:41:23Z</time>
      </trkpt>
      <trkpt lat="44.57595" lon="0.87882">
        <ele>129.92</ele>
        <time>2013-05-26T08:41:24Z</time>
      </trkpt>
      <trkpt lat="44.57595" lon="0.87878">
        <ele>129.43</ele>
        <time>2013-05-26T08:41:25Z</time>
      </trkpt>
      <trkpt lat="44.57597" lon="0.87874">
        <ele>129.43</ele>
        <time>2013-05-26T08:41:26Z</time>
      </trkpt>
      <trkpt lat="44.57598" lon="0.87869">
        <ele>129.43</ele>
        <time>2013-05-26T08:41:27Z</time>
      </trkpt>
      <trkpt lat="44.57599" lon="0.87865">
        <ele>129.43</ele>
        <time>2013-05-26T08:41:28Z</time>
      </trkpt>
      <trkpt lat="44.57601" lon="0.8786">
        <ele>129.43</ele>
        <time>2013-05-26T08:41:29Z</time>
      </trkpt>
      <trkpt lat="44.57634" lon="0.8783">
        <ele>129.92</ele>
        <time>2013-05-26T08:41:40Z</time>
      </trkpt>
      <trkpt lat="44.57639" lon="0.8783">
        <ele>129.92</ele>
        <time>2013-05-26T08:41:41Z</time>
      </trkpt>
      <trkpt lat="44.57643" lon="0.8783">
        <ele>130.4</ele>
        <time>2013-05-26T08:41:42Z</time>
      </trkpt>
      <trkpt lat="44.57711" lon="0.87849">
        <ele>131.36</ele>
        <time>2013-05-26T08:41:56Z</time>
      </trkpt>
      <trkpt lat="44.57776" lon="0.87835">
        <ele>131.36</ele>
        <time>2013-05-26T08:42:10Z</time>
      </trkpt>
      <trkpt lat="44.57794" lon="0.87828">
        <ele>131.36</ele>
        <time>2013-05-26T08:42:14Z</time>
      </trkpt>
      <trkpt lat="44.5787" lon="0.87782">
        <ele>131.84</ele>
        <time>2013-05-26T08:42:31Z</time>
      </trkpt>
      <trkpt lat="44.5789" lon="0.87763">
        <ele>131.36</ele>
        <time>2013-05-26T08:42:36Z</time>
      </trkpt>
      <trkpt lat="44.57894" lon="0.87758">
        <ele>131.36</ele>
        <time>2013-05-26T08:42:37Z</time>
      </trkpt>
      <trkpt lat="44.57897" lon="0.87753">
        <ele>131.36</ele>
        <time>2013-05-26T08:42:38Z</time>
      </trkpt>
      <trkpt lat="44.57931" lon="0.87656">
        <ele>130.88</ele>
        <time>2013-05-26T08:42:54Z</time>
      </trkpt>
      <trkpt lat="44.57948" lon="0.87621">
        <ele>130.88</ele>
        <time>2013-05-26T08:43:03Z</time>
      </trkpt>
      <trkpt lat="44.57967" lon="0.87586">
        <ele>129.43</ele>
        <time>2013-05-26T08:43:16Z</time>
      </trkpt>
      <trkpt lat="44.57966" lon="0.87561">
        <ele>130.88</ele>
        <time>2013-05-26T08:43:27Z</time>
      </trkpt>
      <trkpt lat="44.57965" lon="0.87518">
        <ele>130.88</ele>
        <time>2013-05-26T08:43:40Z</time>
      </trkpt>
      <trkpt lat="44.57969" lon="0.87509">
        <ele>131.36</ele>
        <time>2013-05-26T08:43:52Z</time>
      </trkpt>
      <trkpt lat="44.57966" lon="0.87501">
        <ele>134.72</ele>
        <time>2013-05-26T08:44:08Z</time>
      </trkpt>
      <trkpt lat="44.57966" lon="0.8749">
        <ele>136.16</ele>
        <time>2013-05-26T08:44:21Z</time>
      </trkpt>
      <trkpt lat="44.57976" lon="0.87466">
        <ele>138.09</ele>
        <time>2013-05-26T08:44:31Z</time>
      </trkpt>
      <trkpt lat="44.57977" lon="0.87456">
        <ele>139.05</ele>
        <time>2013-05-26T08:44:38Z</time>
      </trkpt>
      <trkpt lat="44.57971" lon="0.87446">
        <ele>139.53</ele>
        <time>2013-05-26T08:44:45Z</time>
      </trkpt>
      <trkpt lat="44.57965" lon="0.87436">
        <ele>140.97</ele>
        <time>2013-05-26T08:44:51Z</time>
      </trkpt>
      <trkpt lat="44.57947" lon="0.87423">
        <ele>145.3</ele>
        <time>2013-05-26T08:45:04Z</time>
      </trkpt>
      <trkpt lat="44.57943" lon="0.87422">
        <ele>146.26</ele>
        <time>2013-05-26T08:45:06Z</time>
      </trkpt>
      <trkpt lat="44.57927" lon="0.87416">
        <ele>152.03</ele>
        <time>2013-05-26T08:45:16Z</time>
      </trkpt>
      <trkpt lat="44.57906" lon="0.87417">
        <ele>160.68</ele>
        <time>2013-05-26T08:45:31Z</time>
      </trkpt>
      <trkpt lat="44.57888" lon="0.87418">
        <ele>160.68</ele>
        <time>2013-05-26T08:45:40Z</time>
      </trkpt>
      <trkpt lat="44.57869" lon="0.87415">
        <ele>165.96</ele>
        <time>2013-05-26T08:45:54Z</time>
      </trkpt>
      <trkpt lat="44.57849" lon="0.87413">
        <ele>167.89</ele>
        <time>2013-05-26T08:46:07Z</time>
      </trkpt>
      <trkpt lat="44.57829" lon="0.8741">
        <ele>170.29</ele>
        <time>2013-05-26T08:46:20Z</time>
      </trkpt>
      <trkpt lat="44.5781" lon="0.87409">
        <ele>171.25</ele>
        <time>2013-05-26T08:46:35Z</time>
      </trkpt>
      <trkpt lat="44.57794" lon="0.87402">
        <ele>171.25</ele>
        <time>2013-05-26T08:46:47Z</time>
      </trkpt>
      <trkpt lat="44.57791" lon="0.87401">
        <ele>171.25</ele>
        <time>2013-05-26T08:46:49Z</time>
      </trkpt>
      <trkpt lat="44.57786" lon="0.874">
        <ele>171.73</ele>
        <time>2013-05-26T08:46:52Z</time>
      </trkpt>
      <trkpt lat="44.57774" lon="0.87399">
        <ele>175.1</ele>
        <time>2013-05-26T08:47:07Z</time>
      </trkpt>
      <trkpt lat="44.57768" lon="0.87394">
        <ele>177.5</ele>
        <time>2013-05-26T08:47:20Z</time>
      </trkpt>
      <trkpt lat="44.57768" lon="0.87392">
        <ele>179.42</ele>
        <time>2013-05-26T08:47:39Z</time>
      </trkpt>
      <trkpt lat="44.5777" lon="0.87392">
        <ele>177.98</ele>
        <time>2013-05-26T08:48:07Z</time>
      </trkpt>
      <trkpt lat="44.57769" lon="0.87392">
        <ele>177.98</ele>
        <time>2013-05-26T08:48:34Z</time>
      </trkpt>
      <trkpt lat="44.57767" lon="0.87391">
        <ele>178.46</ele>
        <time>2013-05-26T08:49:02Z</time>
      </trkpt>
      <trkpt lat="44.57769" lon="0.87392">
        <ele>179.42</ele>
        <time>2013-05-26T08:49:33Z</time>
      </trkpt>
      <trkpt lat="44.57768" lon="0.87394">
        <ele>179.9</ele>
        <time>2013-05-26T08:50:06Z</time>
      </trkpt>
      <trkpt lat="44.5777" lon="0.87388">
        <ele>182.79</ele>
        <time>2013-05-26T08:50:31Z</time>
      </trkpt>
      <trkpt lat="44.57767" lon="0.87388">
        <ele>181.83</ele>
        <time>2013-05-26T08:51:10Z</time>
      </trkpt>
      <trkpt lat="44.57768" lon="0.87393">
        <ele>182.31</ele>
        <time>2013-05-26T08:51:34Z</time>
      </trkpt>
      <trkpt lat="44.57758" lon="0.87389">
        <ele>183.75</ele>
        <time>2013-05-26T08:51:49Z</time>
      </trkpt>
      <trkpt lat="44.57738" lon="0.87368">
        <ele>185.19</ele>
        <time>2013-05-26T08:52:04Z</time>
      </trkpt>
      <trkpt lat="44.57717" lon="0.87339">
        <ele>187.59</ele>
        <time>2013-05-26T08:52:19Z</time>
      </trkpt>
      <trkpt lat="44.57688" lon="0.87311">
        <ele>184.71</ele>
        <time>2013-05-26T08:52:34Z</time>
      </trkpt>
      <trkpt lat="44.57664" lon="0.873">
        <ele>181.35</ele>
        <time>2013-05-26T08:52:47Z</time>
      </trkpt>
      <trkpt lat="44.57624" lon="0.87275">
        <ele>181.35</ele>
        <time>2013-05-26T08:53:01Z</time>
      </trkpt>
      <trkpt lat="44.57601" lon="0.87242">
        <ele>181.83</ele>
        <time>2013-05-26T08:53:16Z</time>
      </trkpt>
      <trkpt lat="44.57625" lon="0.8716">
        <ele>183.75</ele>
        <time>2013-05-26T08:53:35Z</time>
      </trkpt>
      <trkpt lat="44.57613" lon="0.87108">
        <ele>185.19</ele>
        <time>2013-05-26T08:53:47Z</time>
      </trkpt>
      <trkpt lat="44.57591" lon="0.87021">
        <ele>181.83</ele>
        <time>2013-05-26T08:54:01Z</time>
      </trkpt>
      <trkpt lat="44.57572" lon="0.86897">
        <ele>181.83</ele>
        <time>2013-05-26T08:54:16Z</time>
      </trkpt>
      <trkpt lat="44.57571" lon="0.86865">
        <ele>182.79</ele>
        <time>2013-05-26T08:54:21Z</time>
      </trkpt>
      <trkpt lat="44.57569" lon="0.86851">
        <ele>182.31</ele>
        <time>2013-05-26T08:54:23Z</time>
      </trkpt>
      <trkpt lat="44.57546" lon="0.86769">
        <ele>178.94</ele>
        <time>2013-05-26T08:54:34Z</time>
      </trkpt>
      <trkpt lat="44.57538" lon="0.86753">
        <ele>177.98</ele>
        <time>2013-05-26T08:54:39Z</time>
      </trkpt>
      <trkpt lat="44.57535" lon="0.8675">
        <ele>177.98</ele>
        <time>2013-05-26T08:54:40Z</time>
      </trkpt>
      <trkpt lat="44.57532" lon="0.8675">
        <ele>177.98</ele>
        <time>2013-05-26T08:54:41Z</time>
      </trkpt>
      <trkpt lat="44.57529" lon="0.86751">
        <ele>178.46</ele>
        <time>2013-05-26T08:54:42Z</time>
      </trkpt>
      <trkpt lat="44.57526" lon="0.86752">
        <ele>178.46</ele>
        <time>2013-05-26T08:54:43Z</time>
      </trkpt>
      <trkpt lat="44.57522" lon="0.86752">
        <ele>178.94</ele>
        <time>2013-05-26T08:54:44Z</time>
      </trkpt>
      <trkpt lat="44.57478" lon="0.86761">
        <ele>181.35</ele>
        <time>2013-05-26T08:54:59Z</time>
      </trkpt>
      <trkpt lat="44.57426" lon="0.86775">
        <ele>185.67</ele>
        <time>2013-05-26T08:55:14Z</time>
      </trkpt>
      <trkpt lat="44.57353" lon="0.86793">
        <ele>189.04</ele>
        <time>2013-05-26T08:55:32Z</time>
      </trkpt>
      <trkpt lat="44.57295" lon="0.86827">
        <ele>190</ele>
        <time>2013-05-26T08:55:47Z</time>
      </trkpt>
      <trkpt lat="44.57238" lon="0.86877">
        <ele>196.25</ele>
        <time>2013-05-26T08:56:03Z</time>
      </trkpt>
      <trkpt lat="44.57224" lon="0.86888">
        <ele>197.69</ele>
        <time>2013-05-26T08:56:07Z</time>
      </trkpt>
      <trkpt lat="44.57221" lon="0.86886">
        <ele>198.17</ele>
        <time>2013-05-26T08:56:08Z</time>
      </trkpt>
      <trkpt lat="44.57219" lon="0.86883">
        <ele>198.65</ele>
        <time>2013-05-26T08:56:09Z</time>
      </trkpt>
      <trkpt lat="44.57218" lon="0.86879">
        <ele>199.13</ele>
        <time>2013-05-26T08:56:10Z</time>
      </trkpt>
      <trkpt lat="44.57218" lon="0.86875">
        <ele>199.61</ele>
        <time>2013-05-26T08:56:11Z</time>
      </trkpt>
      <trkpt lat="44.57218" lon="0.86871">
        <ele>200.09</ele>
        <time>2013-05-26T08:56:12Z</time>
      </trkpt>
      <trkpt lat="44.57219" lon="0.86867">
        <ele>200.09</ele>
        <time>2013-05-26T08:56:13Z</time>
      </trkpt>
      <trkpt lat="44.57221" lon="0.86864">
        <ele>200.57</ele>
        <time>2013-05-26T08:56:14Z</time>
      </trkpt>
      <trkpt lat="44.57222" lon="0.86861">
        <ele>200.57</ele>
        <time>2013-05-26T08:56:15Z</time>
      </trkpt>
      <trkpt lat="44.57223" lon="0.86857">
        <ele>200.57</ele>
        <time>2013-05-26T08:56:16Z</time>
      </trkpt>
      <trkpt lat="44.57223" lon="0.86854">
        <ele>201.05</ele>
        <time>2013-05-26T08:56:17Z</time>
      </trkpt>
      <trkpt lat="44.57224" lon="0.86851">
        <ele>201.05</ele>
        <time>2013-05-26T08:56:18Z</time>
      </trkpt>
      <trkpt lat="44.57225" lon="0.86848">
        <ele>201.53</ele>
        <time>2013-05-26T08:56:19Z</time>
      </trkpt>
      <trkpt lat="44.57242" lon="0.86803">
        <ele>202.49</ele>
        <time>2013-05-26T08:56:31Z</time>
      </trkpt>
      <trkpt lat="44.57259" lon="0.86734">
        <ele>198.65</ele>
        <time>2013-05-26T08:56:45Z</time>
      </trkpt>
      <trkpt lat="44.57262" lon="0.86708">
        <ele>196.73</ele>
        <time>2013-05-26T08:56:50Z</time>
      </trkpt>
      <trkpt lat="44.57263" lon="0.86703">
        <ele>196.25</ele>
        <time>2013-05-26T08:56:51Z</time>
      </trkpt>
      <trkpt lat="44.57264" lon="0.86697">
        <ele>195.28</ele>
        <time>2013-05-26T08:56:52Z</time>
      </trkpt>
      <trkpt lat="44.57264" lon="0.86692">
        <ele>194.8</ele>
        <time>2013-05-26T08:56:53Z</time>
      </trkpt>
      <trkpt lat="44.57266" lon="0.86687">
        <ele>194.32</ele>
        <time>2013-05-26T08:56:54Z</time>
      </trkpt>
      <trkpt lat="44.57286" lon="0.86624">
        <ele>192.88</ele>
        <time>2013-05-26T08:57:06Z</time>
      </trkpt>
      <trkpt lat="44.57288" lon="0.86619">
        <ele>192.88</ele>
        <time>2013-05-26T08:57:07Z</time>
      </trkpt>
      <trkpt lat="44.5729" lon="0.86614">
        <ele>192.88</ele>
        <time>2013-05-26T08:57:08Z</time>
      </trkpt>
      <trkpt lat="44.57293" lon="0.86608">
        <ele>192.88</ele>
        <time>2013-05-26T08:57:09Z</time>
      </trkpt>
      <trkpt lat="44.57295" lon="0.86603">
        <ele>192.88</ele>
        <time>2013-05-26T08:57:10Z</time>
      </trkpt>
      <trkpt lat="44.57315" lon="0.86555">
        <ele>194.32</ele>
        <time>2013-05-26T08:57:19Z</time>
      </trkpt>
      <trkpt lat="44.57319" lon="0.8655">
        <ele>194.8</ele>
        <time>2013-05-26T08:57:20Z</time>
      </trkpt>
      <trkpt lat="44.57336" lon="0.86502">
        <ele>198.65</ele>
        <time>2013-05-26T08:57:30Z</time>
      </trkpt>
      <trkpt lat="44.57338" lon="0.86494">
        <ele>199.13</ele>
        <time>2013-05-26T08:57:32Z</time>
      </trkpt>
      <trkpt lat="44.57338" lon="0.86491">
        <ele>199.13</ele>
        <time>2013-05-26T08:57:33Z</time>
      </trkpt>
      <trkpt lat="44.57337" lon="0.86487">
        <ele>199.61</ele>
        <time>2013-05-26T08:57:34Z</time>
      </trkpt>
      <trkpt lat="44.57337" lon="0.86482">
        <ele>199.61</ele>
        <time>2013-05-26T08:57:35Z</time>
      </trkpt>
      <trkpt lat="44.57337" lon="0.86475">
        <ele>199.61</ele>
        <time>2013-05-26T08:57:36Z</time>
      </trkpt>
      <trkpt lat="44.57337" lon="0.8646">
        <ele>200.09</ele>
        <time>2013-05-26T08:57:38Z</time>
      </trkpt>
      <trkpt lat="44.57337" lon="0.86453">
        <ele>200.57</ele>
        <time>2013-05-26T08:57:39Z</time>
      </trkpt>
      <trkpt lat="44.57337" lon="0.86446">
        <ele>200.57</ele>
        <time>2013-05-26T08:57:40Z</time>
      </trkpt>
      <trkpt lat="44.57337" lon="0.86439">
        <ele>200.57</ele>
        <time>2013-05-26T08:57:41Z</time>
      </trkpt>
      <trkpt lat="44.57337" lon="0.86432">
        <ele>200.57</ele>
        <time>2013-05-26T08:57:42Z</time>
      </trkpt>
      <trkpt lat="44.5734" lon="0.86389">
        <ele>202.49</ele>
        <time>2013-05-26T08:57:51Z</time>
      </trkpt>
      <trkpt lat="44.57334" lon="0.86318">
        <ele>200.57</ele>
        <time>2013-05-26T08:58:06Z</time>
      </trkpt>
      <trkpt lat="44.57324" lon="0.86251">
        <ele>201.05</ele>
        <time>2013-05-26T08:58:20Z</time>
      </trkpt>
      <trkpt lat="44.57316" lon="0.86129">
        <ele>197.69</ele>
        <time>2013-05-26T08:58:36Z</time>
      </trkpt>
      <trkpt lat="44.57328" lon="0.86042">
        <ele>191.92</ele>
        <time>2013-05-26T08:58:46Z</time>
      </trkpt>
      <trkpt lat="44.57334" lon="0.86025">
        <ele>191.44</ele>
        <time>2013-05-26T08:58:48Z</time>
      </trkpt>
      <trkpt lat="44.57338" lon="0.86018">
        <ele>190.96</ele>
        <time>2013-05-26T08:58:49Z</time>
      </trkpt>
      <trkpt lat="44.57341" lon="0.86012">
        <ele>190.96</ele>
        <time>2013-05-26T08:58:50Z</time>
      </trkpt>
      <trkpt lat="44.57345" lon="0.86008">
        <ele>190.96</ele>
        <time>2013-05-26T08:58:51Z</time>
      </trkpt>
      <trkpt lat="44.57349" lon="0.86007">
        <ele>190.48</ele>
        <time>2013-05-26T08:58:52Z</time>
      </trkpt>
      <trkpt lat="44.57354" lon="0.86007">
        <ele>190.48</ele>
        <time>2013-05-26T08:58:53Z</time>
      </trkpt>
      <trkpt lat="44.57358" lon="0.8601">
        <ele>190.48</ele>
        <time>2013-05-26T08:58:54Z</time>
      </trkpt>
      <trkpt lat="44.57362" lon="0.86012">
        <ele>190.96</ele>
        <time>2013-05-26T08:58:55Z</time>
      </trkpt>
      <trkpt lat="44.57378" lon="0.86026">
        <ele>191.92</ele>
        <time>2013-05-26T08:59:04Z</time>
      </trkpt>
      <trkpt lat="44.57379" lon="0.86027">
        <ele>191.92</ele>
        <time>2013-05-26T08:59:05Z</time>
      </trkpt>
      <trkpt lat="44.57382" lon="0.86029">
        <ele>191.44</ele>
        <time>2013-05-26T08:59:18Z</time>
      </trkpt>
      <trkpt lat="44.57384" lon="0.8603">
        <ele>191.44</ele>
        <time>2013-05-26T08:59:40Z</time>
      </trkpt>
      <trkpt lat="44.57417" lon="0.86055">
        <ele>190</ele>
        <time>2013-05-26T08:59:51Z</time>
      </trkpt>
      <trkpt lat="44.57445" lon="0.86067">
        <ele>190</ele>
        <time>2013-05-26T08:59:57Z</time>
      </trkpt>
      <trkpt lat="44.57461" lon="0.86071">
        <ele>190</ele>
        <time>2013-05-26T09:00:00Z</time>
      </trkpt>
      <trkpt lat="44.57466" lon="0.86072">
        <ele>190</ele>
        <time>2013-05-26T09:00:01Z</time>
      </trkpt>
      <trkpt lat="44.57555" lon="0.86059">
        <ele>187.11</ele>
        <time>2013-05-26T09:00:15Z</time>
      </trkpt>
      <trkpt lat="44.57631" lon="0.86023">
        <ele>184.23</ele>
        <time>2013-05-26T09:00:28Z</time>
      </trkpt>
      <trkpt lat="44.57671" lon="0.86002">
        <ele>183.27</ele>
        <time>2013-05-26T09:00:35Z</time>
      </trkpt>
      <trkpt lat="44.57676" lon="0.85999">
        <ele>183.27</ele>
        <time>2013-05-26T09:00:36Z</time>
      </trkpt>
      <trkpt lat="44.57759" lon="0.85965">
        <ele>181.35</ele>
        <time>2013-05-26T09:00:50Z</time>
      </trkpt>
      <trkpt lat="44.57862" lon="0.85914">
        <ele>177.02</ele>
        <time>2013-05-26T09:01:05Z</time>
      </trkpt>
      <trkpt lat="44.5795" lon="0.8587">
        <ele>175.58</ele>
        <time>2013-05-26T09:01:18Z</time>
      </trkpt>
      <trkpt lat="44.58022" lon="0.85834">
        <ele>176.54</ele>
        <time>2013-05-26T09:01:30Z</time>
      </trkpt>
      <trkpt lat="44.58038" lon="0.85826">
        <ele>177.02</ele>
        <time>2013-05-26T09:01:33Z</time>
      </trkpt>
      <trkpt lat="44.58043" lon="0.85824">
        <ele>177.02</ele>
        <time>2013-05-26T09:01:34Z</time>
      </trkpt>
      <trkpt lat="44.58125" lon="0.85784">
        <ele>177.5</ele>
        <time>2013-05-26T09:01:49Z</time>
      </trkpt>
      <trkpt lat="44.58168" lon="0.85752">
        <ele>177.02</ele>
        <time>2013-05-26T09:01:56Z</time>
      </trkpt>
      <trkpt lat="44.58174" lon="0.85745">
        <ele>177.02</ele>
        <time>2013-05-26T09:01:57Z</time>
      </trkpt>
      <trkpt lat="44.58188" lon="0.85722">
        <ele>177.02</ele>
        <time>2013-05-26T09:02:00Z</time>
      </trkpt>
      <trkpt lat="44.58226" lon="0.85645">
        <ele>177.98</ele>
        <time>2013-05-26T09:02:09Z</time>
      </trkpt>
      <trkpt lat="44.58229" lon="0.8564">
        <ele>177.98</ele>
        <time>2013-05-26T09:02:10Z</time>
      </trkpt>
      <trkpt lat="44.58232" lon="0.85635">
        <ele>177.98</ele>
        <time>2013-05-26T09:02:11Z</time>
      </trkpt>
      <trkpt lat="44.58235" lon="0.85631">
        <ele>178.46</ele>
        <time>2013-05-26T09:02:12Z</time>
      </trkpt>
      <trkpt lat="44.58237" lon="0.85626">
        <ele>178.46</ele>
        <time>2013-05-26T09:02:13Z</time>
      </trkpt>
      <trkpt lat="44.5824" lon="0.85621">
        <ele>178.46</ele>
        <time>2013-05-26T09:02:14Z</time>
      </trkpt>
      <trkpt lat="44.58243" lon="0.85616">
        <ele>178.46</ele>
        <time>2013-05-26T09:02:15Z</time>
      </trkpt>
      <trkpt lat="44.58246" lon="0.85612">
        <ele>178.46</ele>
        <time>2013-05-26T09:02:16Z</time>
      </trkpt>
      <trkpt lat="44.5825" lon="0.85608">
        <ele>178.46</ele>
        <time>2013-05-26T09:02:17Z</time>
      </trkpt>
      <trkpt lat="44.58254" lon="0.85605">
        <ele>177.98</ele>
        <time>2013-05-26T09:02:18Z</time>
      </trkpt>
      <trkpt lat="44.58258" lon="0.85602">
        <ele>177.5</ele>
        <time>2013-05-26T09:02:19Z</time>
      </trkpt>
      <trkpt lat="44.58264" lon="0.856">
        <ele>177.02</ele>
        <time>2013-05-26T09:02:20Z</time>
      </trkpt>
      <trkpt lat="44.58269" lon="0.85598">
        <ele>177.02</ele>
        <time>2013-05-26T09:02:21Z</time>
      </trkpt>
      <trkpt lat="44.58298" lon="0.85589">
        <ele>175.1</ele>
        <time>2013-05-26T09:02:26Z</time>
      </trkpt>
      <trkpt lat="44.5831" lon="0.85586">
        <ele>174.62</ele>
        <time>2013-05-26T09:02:28Z</time>
      </trkpt>
      <trkpt lat="44.58385" lon="0.85562">
        <ele>177.02</ele>
        <time>2013-05-26T09:02:42Z</time>
      </trkpt>
      <trkpt lat="44.58459" lon="0.85522">
        <ele>179.42</ele>
        <time>2013-05-26T09:02:56Z</time>
      </trkpt>
      <trkpt lat="44.58482" lon="0.85501">
        <ele>180.38</ele>
        <time>2013-05-26T09:03:01Z</time>
      </trkpt>
      <trkpt lat="44.58498" lon="0.85489">
        <ele>180.87</ele>
        <time>2013-05-26T09:03:04Z</time>
      </trkpt>
      <trkpt lat="44.5851" lon="0.85483">
        <ele>180.87</ele>
        <time>2013-05-26T09:03:06Z</time>
      </trkpt>
      <trkpt lat="44.58523" lon="0.85478">
        <ele>180.87</ele>
        <time>2013-05-26T09:03:08Z</time>
      </trkpt>
      <trkpt lat="44.58604" lon="0.85482">
        <ele>179.42</ele>
        <time>2013-05-26T09:03:21Z</time>
      </trkpt>
      <trkpt lat="44.58652" lon="0.85496">
        <ele>177.5</ele>
        <time>2013-05-26T09:03:30Z</time>
      </trkpt>
      <trkpt lat="44.58733" lon="0.85517">
        <ele>176.54</ele>
        <time>2013-05-26T09:03:45Z</time>
      </trkpt>
      <trkpt lat="44.58829" lon="0.85535">
        <ele>176.06</ele>
        <time>2013-05-26T09:04:02Z</time>
      </trkpt>
      <trkpt lat="44.58906" lon="0.85553">
        <ele>177.5</ele>
        <time>2013-05-26T09:04:15Z</time>
      </trkpt>
      <trkpt lat="44.58936" lon="0.85561">
        <ele>179.42</ele>
        <time>2013-05-26T09:04:20Z</time>
      </trkpt>
      <trkpt lat="44.58942" lon="0.85559">
        <ele>179.9</ele>
        <time>2013-05-26T09:04:21Z</time>
      </trkpt>
      <trkpt lat="44.58946" lon="0.85554">
        <ele>180.38</ele>
        <time>2013-05-26T09:04:22Z</time>
      </trkpt>
      <trkpt lat="44.58949" lon="0.85547">
        <ele>180.38</ele>
        <time>2013-05-26T09:04:23Z</time>
      </trkpt>
      <trkpt lat="44.58949" lon="0.85538">
        <ele>180.87</ele>
        <time>2013-05-26T09:04:24Z</time>
      </trkpt>
      <trkpt lat="44.5895" lon="0.85531">
        <ele>180.87</ele>
        <time>2013-05-26T09:04:25Z</time>
      </trkpt>
      <trkpt lat="44.5895" lon="0.85523">
        <ele>180.87</ele>
        <time>2013-05-26T09:04:26Z</time>
      </trkpt>
      <trkpt lat="44.5895" lon="0.85517">
        <ele>180.87</ele>
        <time>2013-05-26T09:04:27Z</time>
      </trkpt>
      <trkpt lat="44.58951" lon="0.85512">
        <ele>180.87</ele>
        <time>2013-05-26T09:04:28Z</time>
      </trkpt>
      <trkpt lat="44.58954" lon="0.85501">
        <ele>180.38</ele>
        <time>2013-05-26T09:04:32Z</time>
      </trkpt>
      <trkpt lat="44.58955" lon="0.85501">
        <ele>179.9</ele>
        <time>2013-05-26T09:04:33Z</time>
      </trkpt>
      <trkpt lat="44.58956" lon="0.85501">
        <ele>179.9</ele>
        <time>2013-05-26T09:04:34Z</time>
      </trkpt>
      <trkpt lat="44.58957" lon="0.85503">
        <ele>179.9</ele>
        <time>2013-05-26T09:04:35Z</time>
      </trkpt>
      <trkpt lat="44.58959" lon="0.85504">
        <ele>179.9</ele>
        <time>2013-05-26T09:04:36Z</time>
      </trkpt>
      <trkpt lat="44.58961" lon="0.85505">
        <ele>179.9</ele>
        <time>2013-05-26T09:04:37Z</time>
      </trkpt>
      <trkpt lat="44.5897" lon="0.85509">
        <ele>178.94</ele>
        <time>2013-05-26T09:04:50Z</time>
      </trkpt>
      <trkpt lat="44.58972" lon="0.8551">
        <ele>177.5</ele>
        <time>2013-05-26T09:05:10Z</time>
      </trkpt>
      <trkpt lat="44.58972" lon="0.85507">
        <ele>177.98</ele>
        <time>2013-05-26T09:05:29Z</time>
      </trkpt>
      <trkpt lat="44.58972" lon="0.85505">
        <ele>177.98</ele>
        <time>2013-05-26T09:05:30Z</time>
      </trkpt>
      <trkpt lat="44.5897" lon="0.85504">
        <ele>177.98</ele>
        <time>2013-05-26T09:05:31Z</time>
      </trkpt>
      <trkpt lat="44.58967" lon="0.85502">
        <ele>178.46</ele>
        <time>2013-05-26T09:05:33Z</time>
      </trkpt>
      <trkpt lat="44.58965" lon="0.855">
        <ele>178.46</ele>
        <time>2013-05-26T09:05:34Z</time>
      </trkpt>
      <trkpt lat="44.58933" lon="0.85479">
        <ele>177.5</ele>
        <time>2013-05-26T09:05:47Z</time>
      </trkpt>
      <trkpt lat="44.58902" lon="0.85452">
        <ele>175.58</ele>
        <time>2013-05-26T09:05:59Z</time>
      </trkpt>
      <trkpt lat="44.58876" lon="0.85433">
        <ele>175.58</ele>
        <time>2013-05-26T09:06:11Z</time>
      </trkpt>
      <trkpt lat="44.58848" lon="0.85408">
        <ele>177.5</ele>
        <time>2013-05-26T09:06:25Z</time>
      </trkpt>
      <trkpt lat="44.58844" lon="0.85404">
        <ele>178.94</ele>
        <time>2013-05-26T09:06:28Z</time>
      </trkpt>
      <trkpt lat="44.58844" lon="0.85404">
        <ele>180.38</ele>
        <time>2013-05-26T09:06:41Z</time>
      </trkpt>
      <trkpt lat="44.58844" lon="0.85403">
        <ele>181.83</ele>
        <time>2013-05-26T09:07:06Z</time>
      </trkpt>
      <trkpt lat="44.58844" lon="0.85403">
        <ele>180.87</ele>
        <time>2013-05-26T09:07:25Z</time>
      </trkpt>
      <trkpt lat="44.58845" lon="0.85401">
        <ele>180.87</ele>
        <time>2013-05-26T09:07:30Z</time>
      </trkpt>
      <trkpt lat="44.58846" lon="0.85399">
        <ele>180.87</ele>
        <time>2013-05-26T09:07:31Z</time>
      </trkpt>
      <trkpt lat="44.58847" lon="0.85398">
        <ele>180.87</ele>
        <time>2013-05-26T09:07:32Z</time>
      </trkpt>
      <trkpt lat="44.58876" lon="0.85353">
        <ele>177.98</ele>
        <time>2013-05-26T09:07:43Z</time>
      </trkpt>
      <trkpt lat="44.5892" lon="0.85294">
        <ele>173.17</ele>
        <time>2013-05-26T09:07:52Z</time>
      </trkpt>
      <trkpt lat="44.58926" lon="0.85288">
        <ele>172.21</ele>
        <time>2013-05-26T09:07:53Z</time>
      </trkpt>
      <trkpt lat="44.58933" lon="0.85282">
        <ele>171.73</ele>
        <time>2013-05-26T09:07:54Z</time>
      </trkpt>
      <trkpt lat="44.58953" lon="0.85266">
        <ele>170.29</ele>
        <time>2013-05-26T09:07:57Z</time>
      </trkpt>
      <trkpt lat="44.58959" lon="0.85259">
        <ele>169.81</ele>
        <time>2013-05-26T09:07:58Z</time>
      </trkpt>
      <trkpt lat="44.58981" lon="0.85227">
        <ele>167.41</ele>
        <time>2013-05-26T09:08:03Z</time>
      </trkpt>
      <trkpt lat="44.58984" lon="0.85222">
        <ele>167.41</ele>
        <time>2013-05-26T09:08:04Z</time>
      </trkpt>
      <trkpt lat="44.58986" lon="0.85219">
        <ele>167.41</ele>
        <time>2013-05-26T09:08:05Z</time>
      </trkpt>
      <trkpt lat="44.58992" lon="0.85209">
        <ele>166.45</ele>
        <time>2013-05-26T09:08:08Z</time>
      </trkpt>
      <trkpt lat="44.58989" lon="0.85203">
        <ele>166.45</ele>
        <time>2013-05-26T09:08:10Z</time>
      </trkpt>
      <trkpt lat="44.58987" lon="0.85203">
        <ele>166.45</ele>
        <time>2013-05-26T09:08:11Z</time>
      </trkpt>
      <trkpt lat="44.58985" lon="0.85203">
        <ele>166.45</ele>
        <time>2013-05-26T09:08:12Z</time>
      </trkpt>
      <trkpt lat="44.58982" lon="0.85204">
        <ele>166.45</ele>
        <time>2013-05-26T09:08:13Z</time>
      </trkpt>
      <trkpt lat="44.5898" lon="0.85205">
        <ele>166.93</ele>
        <time>2013-05-26T09:08:14Z</time>
      </trkpt>
      <trkpt lat="44.58964" lon="0.8521">
        <ele>167.89</ele>
        <time>2013-05-26T09:08:18Z</time>
      </trkpt>
      <trkpt lat="44.58925" lon="0.85208">
        <ele>171.73</ele>
        <time>2013-05-26T09:08:26Z</time>
      </trkpt>
      <trkpt lat="44.58912" lon="0.85192">
        <ele>173.66</ele>
        <time>2013-05-26T09:08:30Z</time>
      </trkpt>
      <trkpt lat="44.58879" lon="0.85174">
        <ele>177.98</ele>
        <time>2013-05-26T09:08:40Z</time>
      </trkpt>
      <trkpt lat="44.58873" lon="0.85176">
        <ele>178.46</ele>
        <time>2013-05-26T09:08:42Z</time>
      </trkpt>
      <trkpt lat="44.58849" lon="0.85139">
        <ele>181.83</ele>
        <time>2013-05-26T09:08:52Z</time>
      </trkpt>
      <trkpt lat="44.58844" lon="0.85127">
        <ele>182.31</ele>
        <time>2013-05-26T09:08:54Z</time>
      </trkpt>
      <trkpt lat="44.58834" lon="0.85105">
        <ele>183.27</ele>
        <time>2013-05-26T09:08:58Z</time>
      </trkpt>
      <trkpt lat="44.58809" lon="0.85092">
        <ele>184.23</ele>
        <time>2013-05-26T09:09:03Z</time>
      </trkpt>
      <trkpt lat="44.58782" lon="0.85069">
        <ele>185.19</ele>
        <time>2013-05-26T09:09:08Z</time>
      </trkpt>
      <trkpt lat="44.58764" lon="0.85039">
        <ele>184.23</ele>
        <time>2013-05-26T09:09:12Z</time>
      </trkpt>
      <trkpt lat="44.5876" lon="0.85032">
        <ele>184.23</ele>
        <time>2013-05-26T09:09:13Z</time>
      </trkpt>
      <trkpt lat="44.58759" lon="0.85026">
        <ele>183.75</ele>
        <time>2013-05-26T09:09:14Z</time>
      </trkpt>
      <trkpt lat="44.58759" lon="0.8502">
        <ele>183.75</ele>
        <time>2013-05-26T09:09:15Z</time>
      </trkpt>
      <trkpt lat="44.58761" lon="0.85015">
        <ele>183.27</ele>
        <time>2013-05-26T09:09:16Z</time>
      </trkpt>
      <trkpt lat="44.58763" lon="0.85009">
        <ele>182.31</ele>
        <time>2013-05-26T09:09:17Z</time>
      </trkpt>
      <trkpt lat="44.58764" lon="0.85006">
        <ele>181.83</ele>
        <time>2013-05-26T09:09:18Z</time>
      </trkpt>
      <trkpt lat="44.58764" lon="0.85004">
        <ele>181.83</ele>
        <time>2013-05-26T09:09:19Z</time>
      </trkpt>
      <trkpt lat="44.58765" lon="0.85001">
        <ele>181.83</ele>
        <time>2013-05-26T09:09:20Z</time>
      </trkpt>
      <trkpt lat="44.58766" lon="0.84999">
        <ele>181.83</ele>
        <time>2013-05-26T09:09:21Z</time>
      </trkpt>
      <trkpt lat="44.58767" lon="0.84997">
        <ele>182.31</ele>
        <time>2013-05-26T09:09:22Z</time>
      </trkpt>
      <trkpt lat="44.58767" lon="0.84995">
        <ele>182.31</ele>
        <time>2013-05-26T09:09:23Z</time>
      </trkpt>
      <trkpt lat="44.58767" lon="0.84993">
        <ele>182.31</ele>
        <time>2013-05-26T09:09:24Z</time>
      </trkpt>
      <trkpt lat="44.58767" lon="0.84991">
        <ele>182.79</ele>
        <time>2013-05-26T09:09:25Z</time>
      </trkpt>
      <trkpt lat="44.58766" lon="0.84989">
        <ele>182.79</ele>
        <time>2013-05-26T09:09:26Z</time>
      </trkpt>
      <trkpt lat="44.58766" lon="0.84987">
        <ele>182.79</ele>
        <time>2013-05-26T09:09:27Z</time>
      </trkpt>
      <trkpt lat="44.58767" lon="0.84983">
        <ele>182.79</ele>
        <time>2013-05-26T09:09:28Z</time>
      </trkpt>
      <trkpt lat="44.58768" lon="0.84978">
        <ele>183.27</ele>
        <time>2013-05-26T09:09:29Z</time>
      </trkpt>
      <trkpt lat="44.58771" lon="0.84971">
        <ele>183.27</ele>
        <time>2013-05-26T09:09:30Z</time>
      </trkpt>
      <trkpt lat="44.5878" lon="0.84947">
        <ele>182.79</ele>
        <time>2013-05-26T09:09:33Z</time>
      </trkpt>
      <trkpt lat="44.58811" lon="0.84899">
        <ele>178.46</ele>
        <time>2013-05-26T09:09:39Z</time>
      </trkpt>
      <trkpt lat="44.58827" lon="0.84867">
        <ele>177.02</ele>
        <time>2013-05-26T09:09:42Z</time>
      </trkpt>
      <trkpt lat="44.58848" lon="0.84797">
        <ele>176.54</ele>
        <time>2013-05-26T09:09:47Z</time>
      </trkpt>
      <trkpt lat="44.58872" lon="0.84743">
        <ele>175.1</ele>
        <time>2013-05-26T09:09:51Z</time>
      </trkpt>
      <trkpt lat="44.58895" lon="0.84712">
        <ele>174.14</ele>
        <time>2013-05-26T09:09:54Z</time>
      </trkpt>
      <trkpt lat="44.58916" lon="0.84639">
        <ele>169.81</ele>
        <time>2013-05-26T09:10:01Z</time>
      </trkpt>
      <trkpt lat="44.58919" lon="0.84603">
        <ele>168.37</ele>
        <time>2013-05-26T09:10:04Z</time>
      </trkpt>
      <trkpt lat="44.58925" lon="0.84552">
        <ele>166.93</ele>
        <time>2013-05-26T09:10:08Z</time>
      </trkpt>
      <trkpt lat="44.58918" lon="0.845">
        <ele>166.45</ele>
        <time>2013-05-26T09:10:13Z</time>
      </trkpt>
      <trkpt lat="44.58911" lon="0.84447">
        <ele>164.04</ele>
        <time>2013-05-26T09:10:18Z</time>
      </trkpt>
      <trkpt lat="44.58904" lon="0.84416">
        <ele>163.56</ele>
        <time>2013-05-26T09:10:21Z</time>
      </trkpt>
      <trkpt lat="44.58902" lon="0.84396">
        <ele>162.6</ele>
        <time>2013-05-26T09:10:23Z</time>
      </trkpt>
      <trkpt lat="44.58885" lon="0.84335">
        <ele>158.75</ele>
        <time>2013-05-26T09:10:29Z</time>
      </trkpt>
      <trkpt lat="44.58881" lon="0.843">
        <ele>158.27</ele>
        <time>2013-05-26T09:10:33Z</time>
      </trkpt>
      <trkpt lat="44.58883" lon="0.84263">
        <ele>158.27</ele>
        <time>2013-05-26T09:10:37Z</time>
      </trkpt>
      <trkpt lat="44.58889" lon="0.84237">
        <ele>158.27</ele>
        <time>2013-05-26T09:10:40Z</time>
      </trkpt>
      <trkpt lat="44.58895" lon="0.84222">
        <ele>158.75</ele>
        <time>2013-05-26T09:10:42Z</time>
      </trkpt>
      <trkpt lat="44.58897" lon="0.84215">
        <ele>159.24</ele>
        <time>2013-05-26T09:10:43Z</time>
      </trkpt>
      <trkpt lat="44.589" lon="0.84209">
        <ele>159.24</ele>
        <time>2013-05-26T09:10:44Z</time>
      </trkpt>
      <trkpt lat="44.58902" lon="0.84202">
        <ele>159.72</ele>
        <time>2013-05-26T09:10:45Z</time>
      </trkpt>
      <trkpt lat="44.58904" lon="0.84196">
        <ele>159.72</ele>
        <time>2013-05-26T09:10:46Z</time>
      </trkpt>
      <trkpt lat="44.58908" lon="0.84174">
        <ele>159.72</ele>
        <time>2013-05-26T09:10:49Z</time>
      </trkpt>
      <trkpt lat="44.58908" lon="0.84166">
        <ele>159.72</ele>
        <time>2013-05-26T09:10:50Z</time>
      </trkpt>
      <trkpt lat="44.58909" lon="0.84145">
        <ele>159.72</ele>
        <time>2013-05-26T09:10:57Z</time>
      </trkpt>
      <trkpt lat="44.58908" lon="0.84143">
        <ele>158.27</ele>
        <time>2013-05-26T09:11:14Z</time>
      </trkpt>
      <trkpt lat="44.58908" lon="0.84142">
        <ele>158.27</ele>
        <time>2013-05-26T09:11:39Z</time>
      </trkpt>
      <trkpt lat="44.58917" lon="0.84126">
        <ele>157.79</ele>
        <time>2013-05-26T09:11:53Z</time>
      </trkpt>
      <trkpt lat="44.58927" lon="0.84114">
        <ele>157.31</ele>
        <time>2013-05-26T09:11:56Z</time>
      </trkpt>
      <trkpt lat="44.58932" lon="0.8411">
        <ele>156.83</ele>
        <time>2013-05-26T09:11:57Z</time>
      </trkpt>
      <trkpt lat="44.58949" lon="0.84099">
        <ele>156.35</ele>
        <time>2013-05-26T09:12:01Z</time>
      </trkpt>
      <trkpt lat="44.58953" lon="0.84097">
        <ele>156.35</ele>
        <time>2013-05-26T09:12:02Z</time>
      </trkpt>
      <trkpt lat="44.58956" lon="0.84095">
        <ele>156.35</ele>
        <time>2013-05-26T09:12:03Z</time>
      </trkpt>
      <trkpt lat="44.58959" lon="0.84093">
        <ele>156.35</ele>
        <time>2013-05-26T09:12:04Z</time>
      </trkpt>
      <trkpt lat="44.58962" lon="0.84091">
        <ele>156.35</ele>
        <time>2013-05-26T09:12:05Z</time>
      </trkpt>
      <trkpt lat="44.58965" lon="0.8409">
        <ele>156.35</ele>
        <time>2013-05-26T09:12:06Z</time>
      </trkpt>
      <trkpt lat="44.59003" lon="0.84068">
        <ele>155.87</ele>
        <time>2013-05-26T09:12:19Z</time>
      </trkpt>
      <trkpt lat="44.59044" lon="0.84033">
        <ele>155.87</ele>
        <time>2013-05-26T09:12:31Z</time>
      </trkpt>
      <trkpt lat="44.59052" lon="0.84026">
        <ele>155.87</ele>
        <time>2013-05-26T09:12:33Z</time>
      </trkpt>
      <trkpt lat="44.59094" lon="0.83997">
        <ele>156.35</ele>
        <time>2013-05-26T09:12:43Z</time>
      </trkpt>
      <trkpt lat="44.59116" lon="0.83991">
        <ele>155.87</ele>
        <time>2013-05-26T09:12:53Z</time>
      </trkpt>
      <trkpt lat="44.59117" lon="0.83993">
        <ele>157.79</ele>
        <time>2013-05-26T09:13:09Z</time>
      </trkpt>
      <trkpt lat="44.59117" lon="0.83994">
        <ele>157.79</ele>
        <time>2013-05-26T09:13:10Z</time>
      </trkpt>
      <trkpt lat="44.59117" lon="0.83996">
        <ele>157.79</ele>
        <time>2013-05-26T09:13:11Z</time>
      </trkpt>
      <trkpt lat="44.59114" lon="0.84033">
        <ele>155.39</ele>
        <time>2013-05-26T09:13:21Z</time>
      </trkpt>
      <trkpt lat="44.5911" lon="0.84107">
        <ele>151.54</ele>
        <time>2013-05-26T09:13:31Z</time>
      </trkpt>
      <trkpt lat="44.59112" lon="0.84118">
        <ele>151.06</ele>
        <time>2013-05-26T09:13:32Z</time>
      </trkpt>
      <trkpt lat="44.59114" lon="0.84129">
        <ele>150.1</ele>
        <time>2013-05-26T09:13:33Z</time>
      </trkpt>
      <trkpt lat="44.59117" lon="0.84141">
        <ele>149.14</ele>
        <time>2013-05-26T09:13:34Z</time>
      </trkpt>
      <trkpt lat="44.59121" lon="0.84153">
        <ele>148.18</ele>
        <time>2013-05-26T09:13:35Z</time>
      </trkpt>
      <trkpt lat="44.59125" lon="0.84165">
        <ele>147.22</ele>
        <time>2013-05-26T09:13:36Z</time>
      </trkpt>
      <trkpt lat="44.5913" lon="0.84177">
        <ele>146.26</ele>
        <time>2013-05-26T09:13:37Z</time>
      </trkpt>
      <trkpt lat="44.59212" lon="0.84309">
        <ele>138.09</ele>
        <time>2013-05-26T09:13:50Z</time>
      </trkpt>
      <trkpt lat="44.59263" lon="0.84358">
        <ele>138.57</ele>
        <time>2013-05-26T09:13:59Z</time>
      </trkpt>
      <trkpt lat="44.59266" lon="0.84361">
        <ele>138.09</ele>
        <time>2013-05-26T09:14:02Z</time>
      </trkpt>
      <trkpt lat="44.59267" lon="0.8436">
        <ele>138.09</ele>
        <time>2013-05-26T09:14:03Z</time>
      </trkpt>
      <trkpt lat="44.59294" lon="0.84347">
        <ele>135.2</ele>
        <time>2013-05-26T09:14:12Z</time>
      </trkpt>
      <trkpt lat="44.59307" lon="0.84341">
        <ele>134.24</ele>
        <time>2013-05-26T09:14:15Z</time>
      </trkpt>
      <trkpt lat="44.59318" lon="0.84341">
        <ele>133.28</ele>
        <time>2013-05-26T09:14:17Z</time>
      </trkpt>
      <trkpt lat="44.59339" lon="0.84343">
        <ele>130.88</ele>
        <time>2013-05-26T09:14:22Z</time>
      </trkpt>
      <trkpt lat="44.59362" lon="0.84345">
        <ele>131.36</ele>
        <time>2013-05-26T09:14:27Z</time>
      </trkpt>
      <trkpt lat="44.59403" lon="0.84331">
        <ele>137.13</ele>
        <time>2013-05-26T09:14:40Z</time>
      </trkpt>
      <trkpt lat="44.59408" lon="0.84331">
        <ele>138.09</ele>
        <time>2013-05-26T09:14:42Z</time>
      </trkpt>
      <trkpt lat="44.59415" lon="0.84338">
        <ele>140.01</ele>
        <time>2013-05-26T09:14:46Z</time>
      </trkpt>
      <trkpt lat="44.59444" lon="0.84355">
        <ele>145.78</ele>
        <time>2013-05-26T09:14:58Z</time>
      </trkpt>
      <trkpt lat="44.59446" lon="0.84354">
        <ele>145.78</ele>
        <time>2013-05-26T09:14:59Z</time>
      </trkpt>
      <trkpt lat="44.59459" lon="0.84341">
        <ele>146.74</ele>
        <time>2013-05-26T09:15:05Z</time>
      </trkpt>
      <trkpt lat="44.59501" lon="0.84332">
        <ele>149.62</ele>
        <time>2013-05-26T09:15:21Z</time>
      </trkpt>
      <trkpt lat="44.59536" lon="0.84353">
        <ele>153.47</ele>
        <time>2013-05-26T09:15:35Z</time>
      </trkpt>
      <trkpt lat="44.59558" lon="0.84379">
        <ele>155.87</ele>
        <time>2013-05-26T09:15:48Z</time>
      </trkpt>
      <trkpt lat="44.59565" lon="0.8438">
        <ele>155.39</ele>
        <time>2013-05-26T09:16:00Z</time>
      </trkpt>
      <trkpt lat="44.59564" lon="0.8438">
        <ele>156.35</ele>
        <time>2013-05-26T09:16:36Z</time>
      </trkpt>
      <trkpt lat="44.59564" lon="0.84383">
        <ele>157.31</ele>
        <time>2013-05-26T09:17:04Z</time>
      </trkpt>
      <trkpt lat="44.59564" lon="0.84379">
        <ele>158.75</ele>
        <time>2013-05-26T09:17:22Z</time>
      </trkpt>
      <trkpt lat="44.59565" lon="0.84375">
        <ele>155.87</ele>
        <time>2013-05-26T09:17:51Z</time>
      </trkpt>
      <trkpt lat="44.59568" lon="0.84375">
        <ele>155.39</ele>
        <time>2013-05-26T09:18:16Z</time>
      </trkpt>
      <trkpt lat="44.59566" lon="0.8438">
        <ele>156.35</ele>
        <time>2013-05-26T09:18:36Z</time>
      </trkpt>
      <trkpt lat="44.59566" lon="0.84378">
        <ele>156.35</ele>
        <time>2013-05-26T09:18:43Z</time>
      </trkpt>
      <trkpt lat="44.5957" lon="0.84371">
        <ele>155.87</ele>
        <time>2013-05-26T09:18:48Z</time>
      </trkpt>
      <trkpt lat="44.59572" lon="0.84367">
        <ele>155.87</ele>
        <time>2013-05-26T09:18:50Z</time>
      </trkpt>
      <trkpt lat="44.59582" lon="0.84359">
        <ele>156.83</ele>
        <time>2013-05-26T09:18:54Z</time>
      </trkpt>
      <trkpt lat="44.59608" lon="0.84338">
        <ele>157.79</ele>
        <time>2013-05-26T09:19:04Z</time>
      </trkpt>
      <trkpt lat="44.59636" lon="0.84307">
        <ele>156.35</ele>
        <time>2013-05-26T09:19:14Z</time>
      </trkpt>
      <trkpt lat="44.59644" lon="0.8429">
        <ele>155.39</ele>
        <time>2013-05-26T09:19:17Z</time>
      </trkpt>
      <trkpt lat="44.5966" lon="0.84266">
        <ele>152.99</ele>
        <time>2013-05-26T09:19:21Z</time>
      </trkpt>
      <trkpt lat="44.59681" lon="0.8424">
        <ele>151.06</ele>
        <time>2013-05-26T09:19:25Z</time>
      </trkpt>
      <trkpt lat="44.59696" lon="0.84213">
        <ele>149.14</ele>
        <time>2013-05-26T09:19:32Z</time>
      </trkpt>
      <trkpt lat="44.59709" lon="0.84201">
        <ele>147.7</ele>
        <time>2013-05-26T09:19:35Z</time>
      </trkpt>
      <trkpt lat="44.59737" lon="0.84159">
        <ele>144.82</ele>
        <time>2013-05-26T09:19:41Z</time>
      </trkpt>
      <trkpt lat="44.59751" lon="0.84133">
        <ele>142.89</ele>
        <time>2013-05-26T09:19:44Z</time>
      </trkpt>
      <trkpt lat="44.5979" lon="0.84083">
        <ele>139.05</ele>
        <time>2013-05-26T09:19:53Z</time>
      </trkpt>
      <trkpt lat="44.59796" lon="0.84074">
        <ele>141.93</ele>
        <time>2013-05-26T09:20:04Z</time>
      </trkpt>
      <trkpt lat="44.59797" lon="0.84072">
        <ele>144.82</ele>
        <time>2013-05-26T09:20:26Z</time>
      </trkpt>
      <trkpt lat="44.59797" lon="0.84073">
        <ele>144.82</ele>
        <time>2013-05-26T09:20:50Z</time>
      </trkpt>
      <trkpt lat="44.59797" lon="0.84073">
        <ele>143.37</ele>
        <time>2013-05-26T09:21:15Z</time>
      </trkpt>
      <trkpt lat="44.59796" lon="0.84072">
        <ele>143.37</ele>
        <time>2013-05-26T09:21:34Z</time>
      </trkpt>
      <trkpt lat="44.59797" lon="0.84074">
        <ele>143.85</ele>
        <time>2013-05-26T09:21:59Z</time>
      </trkpt>
      <trkpt lat="44.59797" lon="0.84074">
        <ele>144.82</ele>
        <time>2013-05-26T09:22:31Z</time>
      </trkpt>
      <trkpt lat="44.59797" lon="0.84072">
        <ele>144.34</ele>
        <time>2013-05-26T09:22:34Z</time>
      </trkpt>
      <trkpt lat="44.59789" lon="0.84069">
        <ele>143.85</ele>
        <time>2013-05-26T09:22:38Z</time>
      </trkpt>
      <trkpt lat="44.59761" lon="0.84059">
        <ele>142.89</ele>
        <time>2013-05-26T09:22:46Z</time>
      </trkpt>
      <trkpt lat="44.59737" lon="0.84057">
        <ele>142.89</ele>
        <time>2013-05-26T09:22:51Z</time>
      </trkpt>
      <trkpt lat="44.59687" lon="0.84063">
        <ele>142.41</ele>
        <time>2013-05-26T09:23:00Z</time>
      </trkpt>
      <trkpt lat="44.59682" lon="0.8406">
        <ele>142.41</ele>
        <time>2013-05-26T09:23:01Z</time>
      </trkpt>
      <trkpt lat="44.59673" lon="0.84055">
        <ele>142.41</ele>
        <time>2013-05-26T09:23:03Z</time>
      </trkpt>
      <trkpt lat="44.59656" lon="0.84039">
        <ele>141.45</ele>
        <time>2013-05-26T09:23:07Z</time>
      </trkpt>
      <trkpt lat="44.59646" lon="0.84032">
        <ele>140.97</ele>
        <time>2013-05-26T09:23:09Z</time>
      </trkpt>
      <trkpt lat="44.59599" lon="0.84031">
        <ele>138.09</ele>
        <time>2013-05-26T09:23:16Z</time>
      </trkpt>
      <trkpt lat="44.59569" lon="0.84022">
        <ele>137.13</ele>
        <time>2013-05-26T09:23:20Z</time>
      </trkpt>
      <trkpt lat="44.59529" lon="0.83995">
        <ele>137.13</ele>
        <time>2013-05-26T09:23:28Z</time>
      </trkpt>
      <trkpt lat="44.59518" lon="0.83971">
        <ele>136.16</ele>
        <time>2013-05-26T09:23:32Z</time>
      </trkpt>
      <trkpt lat="44.59494" lon="0.83934">
        <ele>132.32</ele>
        <time>2013-05-26T09:23:37Z</time>
      </trkpt>
      <trkpt lat="44.59481" lon="0.83924">
        <ele>130.88</ele>
        <time>2013-05-26T09:23:39Z</time>
      </trkpt>
      <trkpt lat="44.59459" lon="0.83887">
        <ele>128.95</ele>
        <time>2013-05-26T09:23:44Z</time>
      </trkpt>
      <trkpt lat="44.59443" lon="0.83837">
        <ele>132.32</ele>
        <time>2013-05-26T09:23:53Z</time>
      </trkpt>
      <trkpt lat="44.59427" lon="0.83806">
        <ele>138.57</ele>
        <time>2013-05-26T09:24:02Z</time>
      </trkpt>
      <trkpt lat="44.59423" lon="0.83794">
        <ele>140.97</ele>
        <time>2013-05-26T09:24:05Z</time>
      </trkpt>
      <trkpt lat="44.59395" lon="0.83785">
        <ele>145.3</ele>
        <time>2013-05-26T09:24:14Z</time>
      </trkpt>
      <trkpt lat="44.59392" lon="0.83782">
        <ele>145.78</ele>
        <time>2013-05-26T09:24:15Z</time>
      </trkpt>
      <trkpt lat="44.59367" lon="0.83787">
        <ele>145.78</ele>
        <time>2013-05-26T09:24:24Z</time>
      </trkpt>
      <trkpt lat="44.59346" lon="0.83787">
        <ele>149.14</ele>
        <time>2013-05-26T09:24:34Z</time>
      </trkpt>
      <trkpt lat="44.59321" lon="0.83791">
        <ele>149.62</ele>
        <time>2013-05-26T09:24:48Z</time>
      </trkpt>
      <trkpt lat="44.59308" lon="0.83793">
        <ele>151.06</ele>
        <time>2013-05-26T09:24:54Z</time>
      </trkpt>
      <trkpt lat="44.59302" lon="0.83786">
        <ele>152.51</ele>
        <time>2013-05-26T09:24:58Z</time>
      </trkpt>
      <trkpt lat="44.59274" lon="0.83758">
        <ele>158.75</ele>
        <time>2013-05-26T09:25:13Z</time>
      </trkpt>
      <trkpt lat="44.59258" lon="0.83729">
        <ele>156.35</ele>
        <time>2013-05-26T09:25:25Z</time>
      </trkpt>
      <trkpt lat="44.59246" lon="0.83695">
        <ele>157.79</ele>
        <time>2013-05-26T09:25:39Z</time>
      </trkpt>
      <trkpt lat="44.59232" lon="0.83667">
        <ele>161.16</ele>
        <time>2013-05-26T09:25:49Z</time>
      </trkpt>
      <trkpt lat="44.59232" lon="0.83664">
        <ele>161.64</ele>
        <time>2013-05-26T09:25:50Z</time>
      </trkpt>
      <trkpt lat="44.59232" lon="0.8366">
        <ele>161.64</ele>
        <time>2013-05-26T09:25:51Z</time>
      </trkpt>
      <trkpt lat="44.59232" lon="0.83656">
        <ele>162.12</ele>
        <time>2013-05-26T09:25:52Z</time>
      </trkpt>
      <trkpt lat="44.59233" lon="0.83653">
        <ele>162.6</ele>
        <time>2013-05-26T09:25:53Z</time>
      </trkpt>
      <trkpt lat="44.59234" lon="0.8365">
        <ele>163.08</ele>
        <time>2013-05-26T09:25:54Z</time>
      </trkpt>
      <trkpt lat="44.59245" lon="0.83596">
        <ele>165</ele>
        <time>2013-05-26T09:26:08Z</time>
      </trkpt>
      <trkpt lat="44.59244" lon="0.8359">
        <ele>163.08</ele>
        <time>2013-05-26T09:26:21Z</time>
      </trkpt>
      <trkpt lat="44.59243" lon="0.83579">
        <ele>159.24</ele>
        <time>2013-05-26T09:26:35Z</time>
      </trkpt>
      <trkpt lat="44.59241" lon="0.83576">
        <ele>158.75</ele>
        <time>2013-05-26T09:26:57Z</time>
      </trkpt>
      <trkpt lat="44.59243" lon="0.83574">
        <ele>157.31</ele>
        <time>2013-05-26T09:27:06Z</time>
      </trkpt>
      <trkpt lat="44.59244" lon="0.83573">
        <ele>156.83</ele>
        <time>2013-05-26T09:27:07Z</time>
      </trkpt>
      <trkpt lat="44.59246" lon="0.83572">
        <ele>156.83</ele>
        <time>2013-05-26T09:27:08Z</time>
      </trkpt>
      <trkpt lat="44.59248" lon="0.83571">
        <ele>156.83</ele>
        <time>2013-05-26T09:27:09Z</time>
      </trkpt>
      <trkpt lat="44.5925" lon="0.83571">
        <ele>156.35</ele>
        <time>2013-05-26T09:27:10Z</time>
      </trkpt>
      <trkpt lat="44.59252" lon="0.83569">
        <ele>156.35</ele>
        <time>2013-05-26T09:27:11Z</time>
      </trkpt>
      <trkpt lat="44.59254" lon="0.83568">
        <ele>156.35</ele>
        <time>2013-05-26T09:27:12Z</time>
      </trkpt>
      <trkpt lat="44.59256" lon="0.83566">
        <ele>155.87</ele>
        <time>2013-05-26T09:27:13Z</time>
      </trkpt>
      <trkpt lat="44.59283" lon="0.8352">
        <ele>152.03</ele>
        <time>2013-05-26T09:27:26Z</time>
      </trkpt>
      <trkpt lat="44.59323" lon="0.83453">
        <ele>148.66</ele>
        <time>2013-05-26T09:27:42Z</time>
      </trkpt>
      <trkpt lat="44.59348" lon="0.83405">
        <ele>148.66</ele>
        <time>2013-05-26T09:27:55Z</time>
      </trkpt>
      <trkpt lat="44.59351" lon="0.83402">
        <ele>148.66</ele>
        <time>2013-05-26T09:27:56Z</time>
      </trkpt>
      <trkpt lat="44.59352" lon="0.83398">
        <ele>148.66</ele>
        <time>2013-05-26T09:27:57Z</time>
      </trkpt>
      <trkpt lat="44.59366" lon="0.83338">
        <ele>148.66</ele>
        <time>2013-05-26T09:28:10Z</time>
      </trkpt>
      <trkpt lat="44.59384" lon="0.83234">
        <ele>148.18</ele>
        <time>2013-05-26T09:28:31Z</time>
      </trkpt>
      <trkpt lat="44.59407" lon="0.8312">
        <ele>146.26</ele>
        <time>2013-05-26T09:28:49Z</time>
      </trkpt>
      <trkpt lat="44.59434" lon="0.82976">
        <ele>144.82</ele>
        <time>2013-05-26T09:29:08Z</time>
      </trkpt>
      <trkpt lat="44.5944" lon="0.8288">
        <ele>144.82</ele>
        <time>2013-05-26T09:29:22Z</time>
      </trkpt>
      <trkpt lat="44.59438" lon="0.82839">
        <ele>143.85</ele>
        <time>2013-05-26T09:29:28Z</time>
      </trkpt>
      <trkpt lat="44.59437" lon="0.82832">
        <ele>143.85</ele>
        <time>2013-05-26T09:29:29Z</time>
      </trkpt>
      <trkpt lat="44.59436" lon="0.82826">
        <ele>143.85</ele>
        <time>2013-05-26T09:29:30Z</time>
      </trkpt>
      <trkpt lat="44.59428" lon="0.82766">
        <ele>141.45</ele>
        <time>2013-05-26T09:29:42Z</time>
      </trkpt>
      <trkpt lat="44.59428" lon="0.8276">
        <ele>140.97</ele>
        <time>2013-05-26T09:29:43Z</time>
      </trkpt>
      <trkpt lat="44.59428" lon="0.82754">
        <ele>140.97</ele>
        <time>2013-05-26T09:29:44Z</time>
      </trkpt>
      <trkpt lat="44.59429" lon="0.82748">
        <ele>140.97</ele>
        <time>2013-05-26T09:29:45Z</time>
      </trkpt>
      <trkpt lat="44.5943" lon="0.82741">
        <ele>140.97</ele>
        <time>2013-05-26T09:29:46Z</time>
      </trkpt>
      <trkpt lat="44.59431" lon="0.82735">
        <ele>140.49</ele>
        <time>2013-05-26T09:29:47Z</time>
      </trkpt>
      <trkpt lat="44.59447" lon="0.82663">
        <ele>139.05</ele>
        <time>2013-05-26T09:29:58Z</time>
      </trkpt>
      <trkpt lat="44.59453" lon="0.8264">
        <ele>138.57</ele>
        <time>2013-05-26T09:30:02Z</time>
      </trkpt>
      <trkpt lat="44.59458" lon="0.82629">
        <ele>138.57</ele>
        <time>2013-05-26T09:30:04Z</time>
      </trkpt>
      <trkpt lat="44.59461" lon="0.82624">
        <ele>139.05</ele>
        <time>2013-05-26T09:30:05Z</time>
      </trkpt>
      <trkpt lat="44.5947" lon="0.8261">
        <ele>139.05</ele>
        <time>2013-05-26T09:30:08Z</time>
      </trkpt>
      <trkpt lat="44.59472" lon="0.82605">
        <ele>139.05</ele>
        <time>2013-05-26T09:30:09Z</time>
      </trkpt>
      <trkpt lat="44.59493" lon="0.82531">
        <ele>139.05</ele>
        <time>2013-05-26T09:30:21Z</time>
      </trkpt>
      <trkpt lat="44.59515" lon="0.82469">
        <ele>139.05</ele>
        <time>2013-05-26T09:30:32Z</time>
      </trkpt>
      <trkpt lat="44.59521" lon="0.82423">
        <ele>138.09</ele>
        <time>2013-05-26T09:30:41Z</time>
      </trkpt>
      <trkpt lat="44.59523" lon="0.824">
        <ele>137.61</ele>
        <time>2013-05-26T09:30:48Z</time>
      </trkpt>
      <trkpt lat="44.59522" lon="0.82388">
        <ele>136.64</ele>
        <time>2013-05-26T09:30:53Z</time>
      </trkpt>
      <trkpt lat="44.59521" lon="0.82373">
        <ele>136.16</ele>
        <time>2013-05-26T09:30:58Z</time>
      </trkpt>
      <trkpt lat="44.59519" lon="0.82381">
        <ele>136.64</ele>
        <time>2013-05-26T09:31:06Z</time>
      </trkpt>
      <trkpt lat="44.59519" lon="0.82387">
        <ele>136.64</ele>
        <time>2013-05-26T09:31:07Z</time>
      </trkpt>
      <trkpt lat="44.5952" lon="0.82447">
        <ele>137.13</ele>
        <time>2013-05-26T09:31:20Z</time>
      </trkpt>
      <trkpt lat="44.59525" lon="0.82447">
        <ele>136.64</ele>
        <time>2013-05-26T09:31:24Z</time>
      </trkpt>
      <trkpt lat="44.59531" lon="0.82443">
        <ele>136.16</ele>
        <time>2013-05-26T09:31:36Z</time>
      </trkpt>
      <trkpt lat="44.59529" lon="0.82445">
        <ele>136.64</ele>
        <time>2013-05-26T09:31:40Z</time>
      </trkpt>
      <trkpt lat="44.59516" lon="0.82463">
        <ele>137.13</ele>
        <time>2013-05-26T09:31:51Z</time>
      </trkpt>
      <trkpt lat="44.59512" lon="0.82482">
        <ele>137.13</ele>
        <time>2013-05-26T09:31:57Z</time>
      </trkpt>
      <trkpt lat="44.59527" lon="0.82487">
        <ele>136.64</ele>
        <time>2013-05-26T09:32:04Z</time>
      </trkpt>
      <trkpt lat="44.5953" lon="0.82485">
        <ele>136.64</ele>
        <time>2013-05-26T09:32:05Z</time>
      </trkpt>
      <trkpt lat="44.59532" lon="0.82484">
        <ele>136.16</ele>
        <time>2013-05-26T09:32:06Z</time>
      </trkpt>
      <trkpt lat="44.59534" lon="0.82484">
        <ele>136.16</ele>
        <time>2013-05-26T09:32:07Z</time>
      </trkpt>
      <trkpt lat="44.59536" lon="0.82483">
        <ele>136.16</ele>
        <time>2013-05-26T09:32:08Z</time>
      </trkpt>
      <trkpt lat="44.59537" lon="0.8248">
        <ele>136.16</ele>
        <time>2013-05-26T09:32:09Z</time>
      </trkpt>
      <trkpt lat="44.59539" lon="0.82477">
        <ele>136.16</ele>
        <time>2013-05-26T09:32:10Z</time>
      </trkpt>
      <trkpt lat="44.59541" lon="0.82473">
        <ele>136.16</ele>
        <time>2013-05-26T09:32:11Z</time>
      </trkpt>
      <trkpt lat="44.59543" lon="0.82468">
        <ele>135.68</ele>
        <time>2013-05-26T09:32:12Z</time>
      </trkpt>
      <trkpt lat="44.59545" lon="0.82463">
        <ele>135.68</ele>
        <time>2013-05-26T09:32:13Z</time>
      </trkpt>
      <trkpt lat="44.59547" lon="0.82457">
        <ele>135.68</ele>
        <time>2013-05-26T09:32:14Z</time>
      </trkpt>
      <trkpt lat="44.5955" lon="0.82444">
        <ele>135.2</ele>
        <time>2013-05-26T09:32:16Z</time>
      </trkpt>
      <trkpt lat="44.59551" lon="0.82437">
        <ele>134.72</ele>
        <time>2013-05-26T09:32:17Z</time>
      </trkpt>
      <trkpt lat="44.59551" lon="0.82415">
        <ele>134.72</ele>
        <time>2013-05-26T09:32:20Z</time>
      </trkpt>
      <trkpt lat="44.5955" lon="0.82407">
        <ele>134.24</ele>
        <time>2013-05-26T09:32:21Z</time>
      </trkpt>
      <trkpt lat="44.59548" lon="0.82399">
        <ele>133.76</ele>
        <time>2013-05-26T09:32:22Z</time>
      </trkpt>
      <trkpt lat="44.59542" lon="0.82376">
        <ele>132.8</ele>
        <time>2013-05-26T09:32:25Z</time>
      </trkpt>
      <trkpt lat="44.59542" lon="0.82367">
        <ele>132.32</ele>
        <time>2013-05-26T09:32:26Z</time>
      </trkpt>
      <trkpt lat="44.59542" lon="0.82358">
        <ele>131.84</ele>
        <time>2013-05-26T09:32:27Z</time>
      </trkpt>
      <trkpt lat="44.59544" lon="0.82342">
        <ele>131.36</ele>
        <time>2013-05-26T09:32:29Z</time>
      </trkpt>
      <trkpt lat="44.59544" lon="0.82336">
        <ele>131.84</ele>
        <time>2013-05-26T09:32:30Z</time>
      </trkpt>
      <trkpt lat="44.59545" lon="0.82332">
        <ele>131.36</ele>
        <time>2013-05-26T09:32:31Z</time>
      </trkpt>
      <trkpt lat="44.59546" lon="0.82329">
        <ele>131.36</ele>
        <time>2013-05-26T09:32:32Z</time>
      </trkpt>
      <trkpt lat="44.59548" lon="0.82327">
        <ele>131.84</ele>
        <time>2013-05-26T09:32:33Z</time>
      </trkpt>
      <trkpt lat="44.5955" lon="0.82325">
        <ele>131.36</ele>
        <time>2013-05-26T09:32:34Z</time>
      </trkpt>
      <trkpt lat="44.59552" lon="0.82323">
        <ele>130.88</ele>
        <time>2013-05-26T09:32:35Z</time>
      </trkpt>
      <trkpt lat="44.59554" lon="0.8232">
        <ele>130.4</ele>
        <time>2013-05-26T09:32:36Z</time>
      </trkpt>
      <trkpt lat="44.59555" lon="0.82318">
        <ele>129.92</ele>
        <time>2013-05-26T09:32:37Z</time>
      </trkpt>
      <trkpt lat="44.59559" lon="0.82305">
        <ele>128.95</ele>
        <time>2013-05-26T09:32:48Z</time>
      </trkpt>
      <trkpt lat="44.59558" lon="0.82303">
        <ele>128.47</ele>
        <time>2013-05-26T09:33:07Z</time>
      </trkpt>
      <trkpt lat="44.59557" lon="0.82303">
        <ele>128.95</ele>
        <time>2013-05-26T09:33:19Z</time>
      </trkpt>
      <trkpt lat="44.59555" lon="0.823">
        <ele>128.47</ele>
        <time>2013-05-26T09:33:20Z</time>
      </trkpt>
      <trkpt lat="44.59554" lon="0.82298">
        <ele>128.47</ele>
        <time>2013-05-26T09:33:21Z</time>
      </trkpt>
      <trkpt lat="44.59533" lon="0.82279">
        <ele>127.03</ele>
        <time>2013-05-26T09:33:28Z</time>
      </trkpt>
      <trkpt lat="44.59492" lon="0.82254">
        <ele>121.74</ele>
        <time>2013-05-26T09:33:40Z</time>
      </trkpt>
      <trkpt lat="44.5946" lon="0.82235">
        <ele>115.5</ele>
        <time>2013-05-26T09:33:50Z</time>
      </trkpt>
      <trkpt lat="44.59443" lon="0.82223">
        <ele>112.13</ele>
        <time>2013-05-26T09:33:55Z</time>
      </trkpt>
      <trkpt lat="44.59417" lon="0.82203">
        <ele>107.81</ele>
        <time>2013-05-26T09:34:05Z</time>
      </trkpt>
      <trkpt lat="44.59407" lon="0.82192">
        <ele>106.36</ele>
        <time>2013-05-26T09:34:10Z</time>
      </trkpt>
      <trkpt lat="44.59406" lon="0.82189">
        <ele>106.36</ele>
        <time>2013-05-26T09:34:11Z</time>
      </trkpt>
      <trkpt lat="44.59405" lon="0.82186">
        <ele>105.88</ele>
        <time>2013-05-26T09:34:12Z</time>
      </trkpt>
      <trkpt lat="44.59402" lon="0.82184">
        <ele>105.88</ele>
        <time>2013-05-26T09:34:13Z</time>
      </trkpt>
      <trkpt lat="44.59399" lon="0.82183">
        <ele>105.4</ele>
        <time>2013-05-26T09:34:14Z</time>
      </trkpt>
      <trkpt lat="44.59395" lon="0.82181">
        <ele>104.44</ele>
        <time>2013-05-26T09:34:15Z</time>
      </trkpt>
      <trkpt lat="44.59382" lon="0.82175">
        <ele>103</ele>
        <time>2013-05-26T09:34:18Z</time>
      </trkpt>
      <trkpt lat="44.59377" lon="0.82172">
        <ele>102.52</ele>
        <time>2013-05-26T09:34:19Z</time>
      </trkpt>
      <trkpt lat="44.59353" lon="0.8216">
        <ele>102.04</ele>
        <time>2013-05-26T09:34:28Z</time>
      </trkpt>
      <trkpt lat="44.59318" lon="0.82138">
        <ele>103.96</ele>
        <time>2013-05-26T09:34:42Z</time>
      </trkpt>
      <trkpt lat="44.59274" lon="0.82121">
        <ele>107.81</ele>
        <time>2013-05-26T09:34:57Z</time>
      </trkpt>
      <trkpt lat="44.59225" lon="0.82118">
        <ele>112.61</ele>
        <time>2013-05-26T09:35:13Z</time>
      </trkpt>
      <trkpt lat="44.59196" lon="0.82107">
        <ele>113.57</ele>
        <time>2013-05-26T09:35:26Z</time>
      </trkpt>
      <trkpt lat="44.59166" lon="0.82065">
        <ele>115.01</ele>
        <time>2013-05-26T09:35:42Z</time>
      </trkpt>
      <trkpt lat="44.59164" lon="0.8206">
        <ele>115.98</ele>
        <time>2013-05-26T09:35:54Z</time>
      </trkpt>
      <trkpt lat="44.59163" lon="0.82059">
        <ele>115.98</ele>
        <time>2013-05-26T09:36:08Z</time>
      </trkpt>
      <trkpt lat="44.59165" lon="0.82056">
        <ele>115.98</ele>
        <time>2013-05-26T09:36:10Z</time>
      </trkpt>
      <trkpt lat="44.59167" lon="0.82054">
        <ele>115.98</ele>
        <time>2013-05-26T09:36:11Z</time>
      </trkpt>
      <trkpt lat="44.5917" lon="0.82052">
        <ele>115.5</ele>
        <time>2013-05-26T09:36:12Z</time>
      </trkpt>
      <trkpt lat="44.59172" lon="0.8205">
        <ele>115.98</ele>
        <time>2013-05-26T09:36:13Z</time>
      </trkpt>
      <trkpt lat="44.59175" lon="0.82047">
        <ele>115.98</ele>
        <time>2013-05-26T09:36:14Z</time>
      </trkpt>
      <trkpt lat="44.59213" lon="0.82014">
        <ele>116.46</ele>
        <time>2013-05-26T09:36:26Z</time>
      </trkpt>
      <trkpt lat="44.59244" lon="0.81992">
        <ele>115.5</ele>
        <time>2013-05-26T09:36:33Z</time>
      </trkpt>
      <trkpt lat="44.59249" lon="0.8199">
        <ele>115.5</ele>
        <time>2013-05-26T09:36:34Z</time>
      </trkpt>
      <trkpt lat="44.59316" lon="0.81964">
        <ele>115.01</ele>
        <time>2013-05-26T09:36:47Z</time>
      </trkpt>
      <trkpt lat="44.59333" lon="0.81951">
        <ele>115.98</ele>
        <time>2013-05-26T09:36:52Z</time>
      </trkpt>
      <trkpt lat="44.59383" lon="0.81898">
        <ele>111.65</ele>
        <time>2013-05-26T09:37:01Z</time>
      </trkpt>
      <trkpt lat="44.59402" lon="0.8187">
        <ele>108.77</ele>
        <time>2013-05-26T09:37:04Z</time>
      </trkpt>
      <trkpt lat="44.59406" lon="0.81861">
        <ele>107.32</ele>
        <time>2013-05-26T09:37:05Z</time>
      </trkpt>
      <trkpt lat="44.59417" lon="0.81828">
        <ele>103.96</ele>
        <time>2013-05-26T09:37:10Z</time>
      </trkpt>
      <trkpt lat="44.59415" lon="0.81823">
        <ele>103.48</ele>
        <time>2013-05-26T09:37:11Z</time>
      </trkpt>
      <trkpt lat="44.59411" lon="0.8182">
        <ele>103.48</ele>
        <time>2013-05-26T09:37:12Z</time>
      </trkpt>
      <trkpt lat="44.59407" lon="0.81818">
        <ele>103</ele>
        <time>2013-05-26T09:37:13Z</time>
      </trkpt>
      <trkpt lat="44.59402" lon="0.81815">
        <ele>103</ele>
        <time>2013-05-26T09:37:14Z</time>
      </trkpt>
      <trkpt lat="44.59373" lon="0.81797">
        <ele>102.04</ele>
        <time>2013-05-26T09:37:20Z</time>
      </trkpt>
      <trkpt lat="44.59291" lon="0.81747">
        <ele>101.56</ele>
        <time>2013-05-26T09:37:37Z</time>
      </trkpt>
      <trkpt lat="44.59229" lon="0.81706">
        <ele>100.6</ele>
        <time>2013-05-26T09:37:49Z</time>
      </trkpt>
      <trkpt lat="44.59223" lon="0.81705">
        <ele>100.6</ele>
        <time>2013-05-26T09:37:50Z</time>
      </trkpt>
      <trkpt lat="44.59212" lon="0.81703">
        <ele>101.08</ele>
        <time>2013-05-26T09:37:52Z</time>
      </trkpt>
      <trkpt lat="44.59206" lon="0.817">
        <ele>101.56</ele>
        <time>2013-05-26T09:37:53Z</time>
      </trkpt>
      <trkpt lat="44.59202" lon="0.81696">
        <ele>101.56</ele>
        <time>2013-05-26T09:37:54Z</time>
      </trkpt>
      <trkpt lat="44.59198" lon="0.81689">
        <ele>102.04</ele>
        <time>2013-05-26T09:37:55Z</time>
      </trkpt>
      <trkpt lat="44.59194" lon="0.81683">
        <ele>102.04</ele>
        <time>2013-05-26T09:37:56Z</time>
      </trkpt>
      <trkpt lat="44.5919" lon="0.81676">
        <ele>102.52</ele>
        <time>2013-05-26T09:37:57Z</time>
      </trkpt>
      <trkpt lat="44.59185" lon="0.8167">
        <ele>102.52</ele>
        <time>2013-05-26T09:37:58Z</time>
      </trkpt>
      <trkpt lat="44.5918" lon="0.81665">
        <ele>102.52</ele>
        <time>2013-05-26T09:37:59Z</time>
      </trkpt>
      <trkpt lat="44.59175" lon="0.81661">
        <ele>102.52</ele>
        <time>2013-05-26T09:38:00Z</time>
      </trkpt>
      <trkpt lat="44.59169" lon="0.81658">
        <ele>102.52</ele>
        <time>2013-05-26T09:38:01Z</time>
      </trkpt>
      <trkpt lat="44.59101" lon="0.81598">
        <ele>99.63</ele>
        <time>2013-05-26T09:38:15Z</time>
      </trkpt>
      <trkpt lat="44.59096" lon="0.81594">
        <ele>99.63</ele>
        <time>2013-05-26T09:38:16Z</time>
      </trkpt>
      <trkpt lat="44.59091" lon="0.8159">
        <ele>99.15</ele>
        <time>2013-05-26T09:38:17Z</time>
      </trkpt>
      <trkpt lat="44.59086" lon="0.81587">
        <ele>99.15</ele>
        <time>2013-05-26T09:38:18Z</time>
      </trkpt>
      <trkpt lat="44.59048" lon="0.81574">
        <ele>98.19</ele>
        <time>2013-05-26T09:38:25Z</time>
      </trkpt>
      <trkpt lat="44.58968" lon="0.81555">
        <ele>98.67</ele>
        <time>2013-05-26T09:38:41Z</time>
      </trkpt>
      <trkpt lat="44.58902" lon="0.81545">
        <ele>96.75</ele>
        <time>2013-05-26T09:38:54Z</time>
      </trkpt>
      <trkpt lat="44.58887" lon="0.81539">
        <ele>96.27</ele>
        <time>2013-05-26T09:38:57Z</time>
      </trkpt>
      <trkpt lat="44.58883" lon="0.81536">
        <ele>96.27</ele>
        <time>2013-05-26T09:38:58Z</time>
      </trkpt>
      <trkpt lat="44.58848" lon="0.81508">
        <ele>94.83</ele>
        <time>2013-05-26T09:39:06Z</time>
      </trkpt>
      <trkpt lat="44.58844" lon="0.81507">
        <ele>94.83</ele>
        <time>2013-05-26T09:39:07Z</time>
      </trkpt>
      <trkpt lat="44.5884" lon="0.81508">
        <ele>94.35</ele>
        <time>2013-05-26T09:39:08Z</time>
      </trkpt>
      <trkpt lat="44.58836" lon="0.81511">
        <ele>94.35</ele>
        <time>2013-05-26T09:39:09Z</time>
      </trkpt>
      <trkpt lat="44.58834" lon="0.81515">
        <ele>94.35</ele>
        <time>2013-05-26T09:39:10Z</time>
      </trkpt>
      <trkpt lat="44.58831" lon="0.81519">
        <ele>94.35</ele>
        <time>2013-05-26T09:39:11Z</time>
      </trkpt>
      <trkpt lat="44.58815" lon="0.81544">
        <ele>95.31</ele>
        <time>2013-05-26T09:39:17Z</time>
      </trkpt>
      <trkpt lat="44.58812" lon="0.81546">
        <ele>95.79</ele>
        <time>2013-05-26T09:39:18Z</time>
      </trkpt>
      <trkpt lat="44.58808" lon="0.81544">
        <ele>95.79</ele>
        <time>2013-05-26T09:39:19Z</time>
      </trkpt>
      <trkpt lat="44.58805" lon="0.81542">
        <ele>95.79</ele>
        <time>2013-05-26T09:39:20Z</time>
      </trkpt>
      <trkpt lat="44.58802" lon="0.81539">
        <ele>95.79</ele>
        <time>2013-05-26T09:39:21Z</time>
      </trkpt>
      <trkpt lat="44.58799" lon="0.81535">
        <ele>95.31</ele>
        <time>2013-05-26T09:39:22Z</time>
      </trkpt>
      <trkpt lat="44.58747" lon="0.81478">
        <ele>93.39</ele>
        <time>2013-05-26T09:39:36Z</time>
      </trkpt>
      <trkpt lat="44.58721" lon="0.8146">
        <ele>94.83</ele>
        <time>2013-05-26T09:39:42Z</time>
      </trkpt>
      <trkpt lat="44.58702" lon="0.81453">
        <ele>98.19</ele>
        <time>2013-05-26T09:39:47Z</time>
      </trkpt>
      <trkpt lat="44.587" lon="0.81451">
        <ele>98.67</ele>
        <time>2013-05-26T09:39:48Z</time>
      </trkpt>
      <trkpt lat="44.58666" lon="0.81417">
        <ele>102.04</ele>
        <time>2013-05-26T09:39:59Z</time>
      </trkpt>
      <trkpt lat="44.58626" lon="0.814">
        <ele>103</ele>
        <time>2013-05-26T09:40:10Z</time>
      </trkpt>
      <trkpt lat="44.58599" lon="0.81342">
        <ele>106.36</ele>
        <time>2013-05-26T09:40:23Z</time>
      </trkpt>
      <trkpt lat="44.58586" lon="0.81343">
        <ele>105.88</ele>
        <time>2013-05-26T09:40:27Z</time>
      </trkpt>
      <trkpt lat="44.5855" lon="0.81398">
        <ele>110.21</ele>
        <time>2013-05-26T09:40:42Z</time>
      </trkpt>
      <trkpt lat="44.58522" lon="0.8144">
        <ele>113.09</ele>
        <time>2013-05-26T09:40:54Z</time>
      </trkpt>
      <trkpt lat="44.58483" lon="0.81476">
        <ele>117.9</ele>
        <time>2013-05-26T09:41:06Z</time>
      </trkpt>
      <trkpt lat="44.5844" lon="0.81504">
        <ele>124.15</ele>
        <time>2013-05-26T09:41:21Z</time>
      </trkpt>
      <trkpt lat="44.58408" lon="0.81515">
        <ele>126.07</ele>
        <time>2013-05-26T09:41:32Z</time>
      </trkpt>
      <trkpt lat="44.58359" lon="0.81548">
        <ele>128.47</ele>
        <time>2013-05-26T09:41:47Z</time>
      </trkpt>
      <trkpt lat="44.58309" lon="0.81609">
        <ele>131.36</ele>
        <time>2013-05-26T09:42:06Z</time>
      </trkpt>
      <trkpt lat="44.58263" lon="0.81674">
        <ele>133.76</ele>
        <time>2013-05-26T09:42:24Z</time>
      </trkpt>
      <trkpt lat="44.58223" lon="0.81735">
        <ele>133.76</ele>
        <time>2013-05-26T09:42:39Z</time>
      </trkpt>
      <trkpt lat="44.5818" lon="0.81788">
        <ele>134.24</ele>
        <time>2013-05-26T09:42:52Z</time>
      </trkpt>
      <trkpt lat="44.58178" lon="0.81793">
        <ele>134.72</ele>
        <time>2013-05-26T09:42:53Z</time>
      </trkpt>
      <trkpt lat="44.58162" lon="0.81825">
        <ele>135.2</ele>
        <time>2013-05-26T09:42:59Z</time>
      </trkpt>
      <trkpt lat="44.58159" lon="0.81829">
        <ele>135.2</ele>
        <time>2013-05-26T09:43:00Z</time>
      </trkpt>
      <trkpt lat="44.58156" lon="0.81832">
        <ele>135.68</ele>
        <time>2013-05-26T09:43:01Z</time>
      </trkpt>
      <trkpt lat="44.58152" lon="0.81833">
        <ele>135.68</ele>
        <time>2013-05-26T09:43:02Z</time>
      </trkpt>
      <trkpt lat="44.58148" lon="0.81832">
        <ele>136.16</ele>
        <time>2013-05-26T09:43:03Z</time>
      </trkpt>
      <trkpt lat="44.58144" lon="0.81831">
        <ele>136.64</ele>
        <time>2013-05-26T09:43:04Z</time>
      </trkpt>
      <trkpt lat="44.5814" lon="0.81829">
        <ele>137.13</ele>
        <time>2013-05-26T09:43:05Z</time>
      </trkpt>
      <trkpt lat="44.58136" lon="0.81826">
        <ele>137.13</ele>
        <time>2013-05-26T09:43:06Z</time>
      </trkpt>
      <trkpt lat="44.58132" lon="0.81823">
        <ele>137.61</ele>
        <time>2013-05-26T09:43:07Z</time>
      </trkpt>
      <trkpt lat="44.58129" lon="0.8182">
        <ele>138.09</ele>
        <time>2013-05-26T09:43:08Z</time>
      </trkpt>
      <trkpt lat="44.58124" lon="0.81817">
        <ele>138.57</ele>
        <time>2013-05-26T09:43:09Z</time>
      </trkpt>
      <trkpt lat="44.5812" lon="0.81814">
        <ele>139.05</ele>
        <time>2013-05-26T09:43:10Z</time>
      </trkpt>
      <trkpt lat="44.58086" lon="0.81794">
        <ele>144.34</ele>
        <time>2013-05-26T09:43:20Z</time>
      </trkpt>
      <trkpt lat="44.58079" lon="0.81802">
        <ele>143.85</ele>
        <time>2013-05-26T09:43:24Z</time>
      </trkpt>
      <trkpt lat="44.58078" lon="0.81806">
        <ele>143.37</ele>
        <time>2013-05-26T09:43:25Z</time>
      </trkpt>
      <trkpt lat="44.58066" lon="0.81857">
        <ele>141.93</ele>
        <time>2013-05-26T09:43:39Z</time>
      </trkpt>
      <trkpt lat="44.58049" lon="0.81926">
        <ele>140.49</ele>
        <time>2013-05-26T09:43:54Z</time>
      </trkpt>
      <trkpt lat="44.58033" lon="0.81996">
        <ele>140.01</ele>
        <time>2013-05-26T09:44:07Z</time>
      </trkpt>
      <trkpt lat="44.58015" lon="0.82083">
        <ele>139.53</ele>
        <time>2013-05-26T09:44:23Z</time>
      </trkpt>
      <trkpt lat="44.58014" lon="0.82089">
        <ele>139.53</ele>
        <time>2013-05-26T09:44:24Z</time>
      </trkpt>
      <trkpt lat="44.58" lon="0.82177">
        <ele>139.05</ele>
        <time>2013-05-26T09:44:40Z</time>
      </trkpt>
      <trkpt lat="44.58001" lon="0.8227">
        <ele>139.53</ele>
        <time>2013-05-26T09:44:56Z</time>
      </trkpt>
      <trkpt lat="44.58004" lon="0.8232">
        <ele>140.97</ele>
        <time>2013-05-26T09:45:05Z</time>
      </trkpt>
      <trkpt lat="44.58003" lon="0.82332">
        <ele>141.45</ele>
        <time>2013-05-26T09:45:10Z</time>
      </trkpt>
      <trkpt lat="44.58003" lon="0.82335">
        <ele>141.45</ele>
        <time>2013-05-26T09:45:11Z</time>
      </trkpt>
      <trkpt lat="44.58004" lon="0.82337">
        <ele>141.45</ele>
        <time>2013-05-26T09:45:12Z</time>
      </trkpt>
      <trkpt lat="44.58009" lon="0.82384">
        <ele>143.85</ele>
        <time>2013-05-26T09:45:23Z</time>
      </trkpt>
      <trkpt lat="44.58008" lon="0.82466">
        <ele>146.26</ele>
        <time>2013-05-26T09:45:39Z</time>
      </trkpt>
      <trkpt lat="44.58006" lon="0.82478">
        <ele>145.78</ele>
        <time>2013-05-26T09:45:41Z</time>
      </trkpt>
      <trkpt lat="44.57984" lon="0.82571">
        <ele>146.26</ele>
        <time>2013-05-26T09:46:00Z</time>
      </trkpt>
      <trkpt lat="44.57979" lon="0.82665">
        <ele>147.7</ele>
        <time>2013-05-26T09:46:18Z</time>
      </trkpt>
      <trkpt lat="44.57991" lon="0.8277">
        <ele>149.14</ele>
        <time>2013-05-26T09:46:39Z</time>
      </trkpt>
      <trkpt lat="44.58017" lon="0.82873">
        <ele>150.1</ele>
        <time>2013-05-26T09:47:00Z</time>
      </trkpt>
      <trkpt lat="44.58025" lon="0.8289">
        <ele>150.1</ele>
        <time>2013-05-26T09:47:05Z</time>
      </trkpt>
      <trkpt lat="44.58028" lon="0.82891">
        <ele>150.1</ele>
        <time>2013-05-26T09:47:06Z</time>
      </trkpt>
      <trkpt lat="44.58031" lon="0.82891">
        <ele>150.1</ele>
        <time>2013-05-26T09:47:07Z</time>
      </trkpt>
      <trkpt lat="44.58034" lon="0.82889">
        <ele>150.1</ele>
        <time>2013-05-26T09:47:08Z</time>
      </trkpt>
      <trkpt lat="44.58037" lon="0.82886">
        <ele>150.1</ele>
        <time>2013-05-26T09:47:09Z</time>
      </trkpt>
      <trkpt lat="44.5804" lon="0.82884">
        <ele>150.1</ele>
        <time>2013-05-26T09:47:10Z</time>
      </trkpt>
      <trkpt lat="44.58043" lon="0.82881">
        <ele>150.1</ele>
        <time>2013-05-26T09:47:11Z</time>
      </trkpt>
      <trkpt lat="44.58046" lon="0.82878">
        <ele>150.1</ele>
        <time>2013-05-26T09:47:12Z</time>
      </trkpt>
      <trkpt lat="44.58117" lon="0.82816">
        <ele>149.14</ele>
        <time>2013-05-26T09:47:30Z</time>
      </trkpt>
      <trkpt lat="44.58202" lon="0.82755">
        <ele>147.22</ele>
        <time>2013-05-26T09:47:48Z</time>
      </trkpt>
      <trkpt lat="44.58291" lon="0.82708">
        <ele>146.26</ele>
        <time>2013-05-26T09:48:06Z</time>
      </trkpt>
      <trkpt lat="44.58321" lon="0.827">
        <ele>145.78</ele>
        <time>2013-05-26T09:48:12Z</time>
      </trkpt>
      <trkpt lat="44.584" lon="0.82652">
        <ele>146.26</ele>
        <time>2013-05-26T09:48:28Z</time>
      </trkpt>
      <trkpt lat="44.58468" lon="0.82591">
        <ele>146.26</ele>
        <time>2013-05-26T09:48:43Z</time>
      </trkpt>
      <trkpt lat="44.58536" lon="0.82524">
        <ele>146.26</ele>
        <time>2013-05-26T09:48:59Z</time>
      </trkpt>
      <trkpt lat="44.58571" lon="0.82482">
        <ele>146.74</ele>
        <time>2013-05-26T09:49:11Z</time>
      </trkpt>
    </trkseg>
  </trk>
</gpx>